SWR22D LSGG-KJFK
Flight info
| Callsign | SWR22D |
|---|---|
| Flight time | 7h 58m |
| Altitude | 38000 |
| Route | DIPIR T37 IBABA DCT TUTAX DCT OBURO DCT OKRIX DCT AMODO DCT COHPA UM729 RESMI DCT TABOV DCT PIGOP DCT DITAL UN491 LGL UN502 ARGED DCT SENLO DCT JSY DCT LIZAD DCT LESLU DCT LINRA DCT MALOT/M081F390 NATE RIKAL/N0467F400 N572A TOPPS DCT ENE PARCH4 |
| Aircraft | A333/H-SDE2E3FGHIJ4J5M1P2RWXY/LB1D1 |
Departure
| Time | 2026-05-05 09:54 |
|---|---|
| Airport | Geneva International Airport (LSGG) |
Arrival
| Time | 2026-05-05 17:52 |
|---|---|
| Airport | John F. Kennedy International Airport (KJFK) |
| Time | Latitude | Longitude | Altitude | Speed | Heading |
|---|---|---|---|---|---|
| 2026-05-05 08:51 | 46.23384 | 6.11032 | 1384 ft | 0 kts | 135° |
| 2026-05-05 09:42 | 46.23400 | 6.11009 | 1384 ft | 4 kts | 136° |
| 2026-05-05 09:42 | 46.23415 | 6.10985 | 1386 ft | 4 kts | 115° |
| 2026-05-05 09:42 | 46.23419 | 6.10950 | 1385 ft | 4 kts | 71° |
| 2026-05-05 09:42 | 46.23410 | 6.10925 | 1385 ft | 1 kts | 45° |
| 2026-05-05 09:45 | 46.23438 | 6.10967 | 1384 ft | 8 kts | 45° |
| 2026-05-05 09:45 | 46.23501 | 6.11061 | 1383 ft | 15 kts | 46° |
| 2026-05-05 09:45 | 46.23559 | 6.11137 | 1382 ft | 7 kts | 25° |
| 2026-05-05 09:46 | 46.23628 | 6.11114 | 1383 ft | 12 kts | 325° |
| 2026-05-05 09:46 | 46.23703 | 6.11097 | 1383 ft | 14 kts | 26° |
| 2026-05-05 09:46 | 46.23798 | 6.11218 | 1380 ft | 21 kts | 45° |
| 2026-05-05 09:46 | 46.23871 | 6.11326 | 1379 ft | 10 kts | 44° |
| 2026-05-05 09:47 | 46.23944 | 6.11431 | 1378 ft | 20 kts | 46° |
| 2026-05-05 09:47 | 46.24048 | 6.11585 | 1377 ft | 21 kts | 46° |
| 2026-05-05 09:47 | 46.24131 | 6.11706 | 1375 ft | 16 kts | 45° |
| 2026-05-05 09:47 | 46.24219 | 6.11836 | 1373 ft | 20 kts | 45° |
| 2026-05-05 09:48 | 46.24324 | 6.11993 | 1373 ft | 23 kts | 47° |
| 2026-05-05 09:48 | 46.24441 | 6.12169 | 1371 ft | 25 kts | 41° |
| 2026-05-05 09:48 | 46.24544 | 6.12314 | 1373 ft | 19 kts | 46° |
| 2026-05-05 09:48 | 46.24647 | 6.12465 | 1370 ft | 21 kts | 44° |
| 2026-05-05 09:49 | 46.24722 | 6.12574 | 1369 ft | 10 kts | 45° |
| 2026-05-05 09:49 | 46.24798 | 6.12660 | 1371 ft | 17 kts | 29° |
| 2026-05-05 09:49 | 46.24910 | 6.12717 | 1370 ft | 17 kts | 16° |
| 2026-05-05 09:49 | 46.24984 | 6.12657 | 1372 ft | 4 kts | 271° |
| 2026-05-05 09:50 | 46.24969 | 6.12603 | 1373 ft | 4 kts | 228° |
| 2026-05-05 09:50 | 46.24968 | 6.12601 | 1372 ft | 0 kts | 226° |
| 2026-05-05 09:50 | 46.24958 | 6.12586 | 1371 ft | 7 kts | 225° |
| 2026-05-05 09:50 | 46.24955 | 6.12582 | 1370 ft | 0 kts | 225° |
| 2026-05-05 09:51 | 46.24952 | 6.12578 | 1372 ft | 0 kts | 225° |
| 2026-05-05 09:52 | 46.24952 | 6.12577 | 1371 ft | 0 kts | 225° |
| 2026-05-05 09:52 | 46.24951 | 6.12575 | 1371 ft | 1 kts | 226° |
| 2026-05-05 09:52 | 46.24941 | 6.12561 | 1370 ft | 0 kts | 226° |
| 2026-05-05 09:53 | 46.24935 | 6.12553 | 1371 ft | 9 kts | 226° |
| 2026-05-05 09:53 | 46.24783 | 6.12324 | 1370 ft | 53 kts | 225° |
| 2026-05-05 09:53 | 46.24422 | 6.11802 | 1371 ft | 94 kts | 225° |
| 2026-05-05 09:54 | 46.23870 | 6.10993 | 1381 ft | 131 kts | 225° |
| 2026-05-05 09:54 | 46.23159 | 6.09951 | 1462 ft | 160 kts | 225° |
| 2026-05-05 09:54 | 46.22339 | 6.08745 | 1920 ft | 172 kts | 226° |
| 2026-05-05 09:54 | 46.21511 | 6.07512 | 2632 ft | 171 kts | 226° |
| 2026-05-05 09:55 | 46.20681 | 6.06289 | 3263 ft | 179 kts | 224° |
| 2026-05-05 09:55 | 46.19751 | 6.04929 | 3561 ft | 202 kts | 224° |
| 2026-05-05 09:55 | 46.18701 | 6.03399 | 3744 ft | 228 kts | 224° |
| 2026-05-05 09:55 | 46.17531 | 6.01693 | 4039 ft | 247 kts | 224° |
| 2026-05-05 09:56 | 46.16310 | 5.99901 | 4668 ft | 252 kts | 224° |
| 2026-05-05 09:56 | 46.15091 | 5.98100 | 5490 ft | 253 kts | 224° |
| 2026-05-05 09:56 | 46.13859 | 5.96276 | 6508 ft | 250 kts | 225° |
| 2026-05-05 09:56 | 46.12638 | 5.94465 | 7260 ft | 254 kts | 227° |
| 2026-05-05 09:57 | 46.11779 | 5.92230 | 7953 ft | 264 kts | 256° |
| 2026-05-05 09:57 | 46.11879 | 5.89554 | 8542 ft | 275 kts | 284° |
| 2026-05-05 09:57 | 46.12863 | 5.87155 | 9208 ft | 287 kts | 310° |
| 2026-05-05 09:57 | 46.14556 | 5.85579 | 9969 ft | 298 kts | 338° |
| 2026-05-05 09:58 | 46.16641 | 5.84910 | 10365 ft | 317 kts | 349° |
| 2026-05-05 09:58 | 46.18901 | 5.84498 | 10606 ft | 336 kts | 351° |
| 2026-05-05 09:58 | 46.21283 | 5.84093 | 10867 ft | 353 kts | 350° |
| 2026-05-05 09:58 | 46.23731 | 5.83656 | 11325 ft | 363 kts | 350° |
| 2026-05-05 09:59 | 46.26258 | 5.83179 | 11922 ft | 368 kts | 350° |
| 2026-05-05 09:59 | 46.28815 | 5.82682 | 12611 ft | 371 kts | 350° |
| 2026-05-05 09:59 | 46.31396 | 5.82173 | 13267 ft | 374 kts | 349° |
| 2026-05-05 09:59 | 46.33959 | 5.81663 | 13876 ft | 378 kts | 349° |
| 2026-05-05 10:00 | 46.36578 | 5.81139 | 14444 ft | 382 kts | 349° |
| 2026-05-05 10:00 | 46.39224 | 5.80606 | 15005 ft | 385 kts | 349° |
| 2026-05-05 10:00 | 46.41806 | 5.79614 | 15550 ft | 384 kts | 333° |
| 2026-05-05 10:00 | 46.44197 | 5.77851 | 16116 ft | 387 kts | 328° |
| 2026-05-05 10:01 | 46.46569 | 5.75918 | 16649 ft | 392 kts | 328° |
| 2026-05-05 10:01 | 46.48918 | 5.73987 | 17182 ft | 395 kts | 328° |
| 2026-05-05 10:01 | 46.51332 | 5.72013 | 17716 ft | 399 kts | 328° |
| 2026-05-05 10:01 | 46.53754 | 5.70000 | 18213 ft | 403 kts | 324° |
| 2026-05-05 10:02 | 46.54274 | 5.69498 | 18317 ft | 403 kts | 322° |
| 2026-05-05 10:02 | 46.56466 | 5.66955 | 18773 ft | 405 kts | 316° |
| 2026-05-05 10:02 | 46.58571 | 5.64216 | 19320 ft | 404 kts | 314° |
| 2026-05-05 10:02 | 46.60600 | 5.61389 | 19877 ft | 404 kts | 313° |
| 2026-05-05 10:03 | 46.62604 | 5.58492 | 20300 ft | 408 kts | 312° |
| 2026-05-05 10:03 | 46.64611 | 5.55541 | 20735 ft | 412 kts | 312° |
| 2026-05-05 10:03 | 46.65950 | 5.53567 | 21008 ft | 414 kts | 312° |
| 2026-05-05 10:03 | 46.67988 | 5.50566 | 21440 ft | 418 kts | 312° |
| 2026-05-05 10:04 | 46.70044 | 5.47550 | 21861 ft | 421 kts | 312° |
| 2026-05-05 10:04 | 46.72126 | 5.44507 | 22274 ft | 424 kts | 312° |
| 2026-05-05 10:04 | 46.74223 | 5.41448 | 22684 ft | 428 kts | 313° |
| 2026-05-05 10:04 | 46.76336 | 5.38367 | 23083 ft | 431 kts | 313° |
| 2026-05-05 10:05 | 46.78459 | 5.35271 | 23468 ft | 434 kts | 313° |
| 2026-05-05 10:05 | 46.80601 | 5.32143 | 23793 ft | 437 kts | 313° |
| 2026-05-05 10:05 | 46.82762 | 5.28984 | 24126 ft | 440 kts | 312° |
| 2026-05-05 10:05 | 46.84937 | 5.25800 | 24370 ft | 445 kts | 312° |
| 2026-05-05 10:06 | 46.87131 | 5.22582 | 24762 ft | 446 kts | 313° |
| 2026-05-05 10:06 | 46.89324 | 5.19363 | 25113 ft | 448 kts | 313° |
| 2026-05-05 10:06 | 46.91505 | 5.16158 | 25424 ft | 450 kts | 313° |
| 2026-05-05 10:06 | 46.93717 | 5.12901 | 25743 ft | 453 kts | 313° |
| 2026-05-05 10:07 | 46.95944 | 5.09619 | 26087 ft | 455 kts | 312° |
| 2026-05-05 10:07 | 46.98181 | 5.06319 | 26439 ft | 458 kts | 312° |
| 2026-05-05 10:07 | 47.00432 | 5.02993 | 26769 ft | 460 kts | 312° |
| 2026-05-05 10:07 | 47.02692 | 4.99649 | 27080 ft | 463 kts | 312° |
| 2026-05-05 10:08 | 47.04959 | 4.96291 | 27385 ft | 465 kts | 312° |
| 2026-05-05 10:08 | 47.07242 | 4.92905 | 27710 ft | 467 kts | 312° |
| 2026-05-05 10:08 | 47.09536 | 4.89499 | 27985 ft | 470 kts | 312° |
| 2026-05-05 10:08 | 47.11811 | 4.86116 | 28279 ft | 472 kts | 312° |
| 2026-05-05 10:09 | 47.14122 | 4.82674 | 28584 ft | 474 kts | 312° |
| 2026-05-05 10:09 | 47.16448 | 4.79206 | 28875 ft | 477 kts | 312° |
| 2026-05-05 10:09 | 47.18787 | 4.75714 | 29171 ft | 479 kts | 312° |
| 2026-05-05 10:09 | 47.21128 | 4.72215 | 29474 ft | 482 kts | 312° |
| 2026-05-05 10:10 | 47.23482 | 4.68689 | 29781 ft | 484 kts | 312° |
| 2026-05-05 10:10 | 47.25845 | 4.65148 | 30046 ft | 486 kts | 312° |
| 2026-05-05 10:10 | 47.28223 | 4.61578 | 30317 ft | 488 kts | 312° |
| 2026-05-05 10:10 | 47.30602 | 4.58003 | 30596 ft | 489 kts | 312° |
| 2026-05-05 10:11 | 47.32962 | 4.54452 | 30904 ft | 490 kts | 312° |
| 2026-05-05 10:11 | 47.35350 | 4.50854 | 31157 ft | 492 kts | 312° |
| 2026-05-05 10:11 | 47.37745 | 4.47239 | 31408 ft | 493 kts | 312° |
| 2026-05-05 10:11 | 47.40144 | 4.43614 | 31709 ft | 493 kts | 312° |
| 2026-05-05 10:12 | 47.42540 | 4.39989 | 32113 ft | 491 kts | 312° |
| 2026-05-05 10:12 | 47.44923 | 4.36379 | 32493 ft | 490 kts | 312° |
| 2026-05-05 10:12 | 47.47302 | 4.32769 | 32832 ft | 489 kts | 312° |
| 2026-05-05 10:12 | 47.49668 | 4.29174 | 33155 ft | 488 kts | 312° |
| 2026-05-05 10:13 | 47.52036 | 4.25570 | 33454 ft | 487 kts | 311° |
| 2026-05-05 10:13 | 47.54406 | 4.21959 | 33711 ft | 488 kts | 311° |
| 2026-05-05 10:13 | 47.56763 | 4.18362 | 33970 ft | 487 kts | 311° |
| 2026-05-05 10:13 | 47.59115 | 4.14766 | 34295 ft | 484 kts | 312° |
| 2026-05-05 10:14 | 47.61457 | 4.11184 | 34617 ft | 482 kts | 311° |
| 2026-05-05 10:14 | 47.63782 | 4.07620 | 34882 ft | 481 kts | 311° |
| 2026-05-05 10:14 | 47.66075 | 4.04101 | 35112 ft | 480 kts | 311° |
| 2026-05-05 10:14 | 47.68393 | 4.00538 | 35339 ft | 480 kts | 311° |
| 2026-05-05 10:15 | 47.70712 | 3.96970 | 35587 ft | 479 kts | 311° |
| 2026-05-05 10:15 | 47.73031 | 3.93398 | 35800 ft | 478 kts | 311° |
| 2026-05-05 10:15 | 47.75338 | 3.89838 | 36014 ft | 478 kts | 311° |
| 2026-05-05 10:15 | 47.77640 | 3.86281 | 36234 ft | 477 kts | 311° |
| 2026-05-05 10:16 | 47.79943 | 3.82718 | 36427 ft | 477 kts | 311° |
| 2026-05-05 10:16 | 47.82251 | 3.79143 | 36676 ft | 476 kts | 311° |
| 2026-05-05 10:16 | 47.84511 | 3.75636 | 36937 ft | 475 kts | 311° |
| 2026-05-05 10:16 | 47.86796 | 3.72087 | 37189 ft | 474 kts | 311° |
| 2026-05-05 10:17 | 47.89074 | 3.68544 | 37432 ft | 473 kts | 311° |
| 2026-05-05 10:17 | 47.91346 | 3.65006 | 37674 ft | 472 kts | 311° |
| 2026-05-05 10:17 | 47.93619 | 3.61460 | 37805 ft | 473 kts | 311° |
| 2026-05-05 10:17 | 47.95911 | 3.57925 | 37812 ft | 473 kts | 314° |
| 2026-05-05 10:18 | 48.00816 | 3.51374 | 37819 ft | 473 kts | 316° |
| 2026-05-05 10:18 | 48.05810 | 3.44933 | 37819 ft | 473 kts | 317° |
| 2026-05-05 10:19 | 48.10776 | 3.38564 | 37827 ft | 473 kts | 317° |
| 2026-05-05 10:19 | 48.15772 | 3.32132 | 37820 ft | 473 kts | 317° |
| 2026-05-05 10:20 | 48.20745 | 3.25699 | 37826 ft | 473 kts | 317° |
| 2026-05-05 10:20 | 48.25726 | 3.19232 | 37823 ft | 473 kts | 317° |
| 2026-05-05 10:21 | 48.30705 | 3.12752 | 37826 ft | 473 kts | 317° |
| 2026-05-05 10:21 | 48.35682 | 3.06256 | 37826 ft | 473 kts | 317° |
| 2026-05-05 10:22 | 48.40206 | 2.99489 | 37844 ft | 469 kts | 305° |
| 2026-05-05 10:22 | 48.43266 | 2.90904 | 37832 ft | 465 kts | 287° |
| 2026-05-05 10:23 | 48.45229 | 2.81614 | 37833 ft | 465 kts | 284° |
| 2026-05-05 10:23 | 48.46977 | 2.72227 | 37831 ft | 465 kts | 283° |
| 2026-05-05 10:24 | 48.48703 | 2.62876 | 37830 ft | 465 kts | 283° |
| 2026-05-05 10:24 | 48.50463 | 2.53473 | 37842 ft | 466 kts | 283° |
| 2026-05-05 10:25 | 48.52237 | 2.44046 | 37842 ft | 467 kts | 283° |
| 2026-05-05 10:25 | 48.54007 | 2.34607 | 37861 ft | 467 kts | 283° |
| 2026-05-05 10:26 | 48.55756 | 2.25231 | 37842 ft | 467 kts | 283° |
| 2026-05-05 10:26 | 48.57431 | 2.15749 | 37873 ft | 466 kts | 281° |
| 2026-05-05 10:27 | 48.58797 | 2.06192 | 37852 ft | 466 kts | 279° |
| 2026-05-05 10:27 | 48.60085 | 1.96596 | 37850 ft | 466 kts | 279° |
| 2026-05-05 10:28 | 48.61391 | 1.86990 | 37841 ft | 466 kts | 279° |
| 2026-05-05 10:28 | 48.62705 | 1.77443 | 37840 ft | 466 kts | 279° |
| 2026-05-05 10:29 | 48.64024 | 1.67848 | 37850 ft | 466 kts | 279° |
| 2026-05-05 10:29 | 48.65333 | 1.58245 | 37852 ft | 466 kts | 279° |
| 2026-05-05 10:30 | 48.66630 | 1.48624 | 37853 ft | 466 kts | 279° |
| 2026-05-05 10:30 | 48.67917 | 1.39003 | 37859 ft | 466 kts | 279° |
| 2026-05-05 10:31 | 48.69196 | 1.29386 | 37877 ft | 466 kts | 279° |
| 2026-05-05 10:31 | 48.70469 | 1.19749 | 37867 ft | 467 kts | 279° |
| 2026-05-05 10:32 | 48.71737 | 1.10090 | 37871 ft | 467 kts | 279° |
| 2026-05-05 10:32 | 48.72987 | 1.00501 | 37877 ft | 467 kts | 279° |
| 2026-05-05 10:33 | 48.74238 | 0.90838 | 37875 ft | 467 kts | 279° |
| 2026-05-05 10:33 | 48.75485 | 0.81170 | 37877 ft | 467 kts | 279° |
| 2026-05-05 10:34 | 48.76727 | 0.71497 | 37881 ft | 468 kts | 279° |
| 2026-05-05 10:34 | 48.77963 | 0.61807 | 37879 ft | 468 kts | 278° |
| 2026-05-05 10:35 | 48.79219 | 0.52127 | 37880 ft | 468 kts | 281° |
| 2026-05-05 10:35 | 48.80839 | 0.42611 | 37892 ft | 469 kts | 284° |
| 2026-05-05 10:36 | 48.82629 | 0.33078 | 37883 ft | 469 kts | 284° |
| 2026-05-05 10:36 | 48.84398 | 0.23523 | 37892 ft | 469 kts | 283° |
| 2026-05-05 10:37 | 48.86117 | 0.13985 | 37891 ft | 469 kts | 283° |
| 2026-05-05 10:37 | 48.87818 | 0.04414 | 37884 ft | 469 kts | 283° |
| 2026-05-05 10:38 | 48.89494 | -0.05082 | 37893 ft | 469 kts | 283° |
| 2026-05-05 10:38 | 48.91179 | -0.14666 | 37904 ft | 469 kts | 282° |
| 2026-05-05 10:39 | 48.92861 | -0.24280 | 37908 ft | 469 kts | 283° |
| 2026-05-05 10:39 | 48.94507 | -0.33901 | 37916 ft | 469 kts | 283° |
| 2026-05-05 10:40 | 48.96115 | -0.43464 | 37920 ft | 469 kts | 283° |
| 2026-05-05 10:40 | 48.97727 | -0.53102 | 37921 ft | 469 kts | 282° |
| 2026-05-05 10:41 | 48.99332 | -0.62739 | 37923 ft | 469 kts | 282° |
| 2026-05-05 10:41 | 49.00930 | -0.72374 | 37923 ft | 469 kts | 282° |
| 2026-05-05 10:42 | 49.03313 | -0.86842 | 37914 ft | 469 kts | 282° |
| 2026-05-05 10:43 | 49.04882 | -0.96435 | 37909 ft | 469 kts | 282° |
| 2026-05-05 10:43 | 49.06455 | -1.06110 | 37917 ft | 470 kts | 281° |
| 2026-05-05 10:44 | 49.08018 | -1.15786 | 37919 ft | 470 kts | 282° |
| 2026-05-05 10:44 | 49.09586 | -1.25475 | 37925 ft | 469 kts | 282° |
| 2026-05-05 10:45 | 49.11139 | -1.35062 | 37933 ft | 469 kts | 282° |
| 2026-05-05 10:45 | 49.12698 | -1.44744 | 37930 ft | 470 kts | 281° |
| 2026-05-05 10:46 | 49.14248 | -1.54440 | 37931 ft | 470 kts | 281° |
| 2026-05-05 10:46 | 49.15790 | -1.64140 | 37937 ft | 469 kts | 282° |
| 2026-05-05 10:47 | 49.17316 | -1.73797 | 37942 ft | 470 kts | 281° |
| 2026-05-05 10:47 | 49.18842 | -1.83516 | 37945 ft | 470 kts | 282° |
| 2026-05-05 10:48 | 49.20360 | -1.93231 | 37960 ft | 469 kts | 282° |
| 2026-05-05 10:48 | 49.21869 | -2.02951 | 37964 ft | 470 kts | 281° |
| 2026-05-05 10:49 | 49.23473 | -2.12674 | 37950 ft | 470 kts | 283° |
| 2026-05-05 10:49 | 49.25146 | -2.22333 | 37964 ft | 469 kts | 284° |
| 2026-05-05 10:50 | 49.26800 | -2.31911 | 37960 ft | 469 kts | 283° |
| 2026-05-05 10:50 | 49.28446 | -2.41576 | 37961 ft | 469 kts | 284° |
| 2026-05-05 10:51 | 49.29803 | -2.49610 | 37965 ft | 467 kts | 284° |
| 2026-05-05 10:51 | 49.31421 | -2.59253 | 37966 ft | 467 kts | 284° |
| 2026-05-05 10:52 | 49.33033 | -2.68916 | 37969 ft | 467 kts | 284° |
| 2026-05-05 10:52 | 49.34639 | -2.78588 | 37967 ft | 468 kts | 284° |
| 2026-05-05 10:53 | 49.36239 | -2.88281 | 37968 ft | 468 kts | 284° |
| 2026-05-05 10:53 | 49.37821 | -2.97917 | 37968 ft | 469 kts | 284° |
| 2026-05-05 10:54 | 49.39406 | -3.07634 | 37973 ft | 469 kts | 284° |
| 2026-05-05 10:54 | 49.40984 | -3.17361 | 37976 ft | 468 kts | 284° |
| 2026-05-05 10:55 | 49.42551 | -3.27075 | 37977 ft | 469 kts | 284° |
| 2026-05-05 10:55 | 49.44104 | -3.36762 | 37977 ft | 469 kts | 284° |
| 2026-05-05 10:56 | 49.45661 | -3.46523 | 37978 ft | 469 kts | 283° |
| 2026-05-05 10:56 | 49.47205 | -3.56267 | 37979 ft | 469 kts | 283° |
| 2026-05-05 10:57 | 49.48744 | -3.66039 | 37986 ft | 471 kts | 283° |
| 2026-05-05 10:57 | 49.50278 | -3.75830 | 37987 ft | 470 kts | 283° |
| 2026-05-05 10:58 | 49.51790 | -3.85546 | 37992 ft | 470 kts | 283° |
| 2026-05-05 10:58 | 49.53306 | -3.95345 | 37991 ft | 471 kts | 283° |
| 2026-05-05 10:59 | 49.54814 | -4.05149 | 37998 ft | 470 kts | 283° |
| 2026-05-05 10:59 | 49.56312 | -4.14952 | 37999 ft | 470 kts | 283° |
| 2026-05-05 11:00 | 49.57803 | -4.24765 | 37998 ft | 470 kts | 283° |
| 2026-05-05 11:00 | 49.59837 | -4.34302 | 38004 ft | 469 kts | 297° |
| 2026-05-05 11:01 | 49.63088 | -4.43012 | 38006 ft | 468 kts | 302° |
| 2026-05-05 11:01 | 49.66552 | -4.51474 | 38008 ft | 469 kts | 303° |
| 2026-05-05 11:02 | 49.70059 | -4.59945 | 38008 ft | 466 kts | 303° |
| 2026-05-05 11:02 | 49.73526 | -4.68405 | 38007 ft | 466 kts | 303° |
| 2026-05-05 11:03 | 49.76974 | -4.76896 | 38007 ft | 466 kts | 302° |
| 2026-05-05 11:03 | 49.80405 | -4.85383 | 38007 ft | 466 kts | 302° |
| 2026-05-05 11:04 | 49.83835 | -4.93899 | 38010 ft | 466 kts | 302° |
| 2026-05-05 11:04 | 49.87265 | -5.02442 | 38014 ft | 465 kts | 302° |
| 2026-05-05 11:05 | 49.90658 | -5.10916 | 38004 ft | 465 kts | 302° |
| 2026-05-05 11:05 | 49.94061 | -5.19443 | 38017 ft | 465 kts | 302° |
| 2026-05-05 11:06 | 49.97457 | -5.27982 | 38019 ft | 465 kts | 302° |
| 2026-05-05 11:06 | 50.00855 | -5.36552 | 38019 ft | 465 kts | 302° |
| 2026-05-05 11:07 | 50.04242 | -5.45124 | 38018 ft | 465 kts | 302° |
| 2026-05-05 11:07 | 50.07596 | -5.53642 | 38014 ft | 464 kts | 302° |
| 2026-05-05 11:08 | 50.10952 | -5.62190 | 38018 ft | 462 kts | 302° |
| 2026-05-05 11:08 | 50.14302 | -5.70749 | 38018 ft | 462 kts | 302° |
| 2026-05-05 11:09 | 50.17640 | -5.79311 | 38021 ft | 461 kts | 302° |
| 2026-05-05 11:09 | 50.20975 | -5.87881 | 38024 ft | 463 kts | 302° |
| 2026-05-05 11:10 | 50.24310 | -5.96492 | 38030 ft | 462 kts | 302° |
| 2026-05-05 11:10 | 50.27631 | -6.05085 | 38036 ft | 463 kts | 302° |
| 2026-05-05 11:11 | 50.30931 | -6.13657 | 38048 ft | 463 kts | 302° |
| 2026-05-05 11:11 | 50.34239 | -6.22292 | 38050 ft | 462 kts | 302° |
| 2026-05-05 11:12 | 50.37550 | -6.30943 | 38060 ft | 463 kts | 302° |
| 2026-05-05 11:12 | 50.40845 | -6.39601 | 38059 ft | 462 kts | 302° |
| 2026-05-05 11:13 | 50.44136 | -6.48260 | 38058 ft | 462 kts | 302° |
| 2026-05-05 11:13 | 50.47411 | -6.56910 | 38058 ft | 459 kts | 302° |
| 2026-05-05 11:14 | 50.50661 | -6.65522 | 38065 ft | 457 kts | 302° |
| 2026-05-05 11:14 | 50.53877 | -6.74073 | 38067 ft | 457 kts | 302° |
| 2026-05-05 11:15 | 50.57104 | -6.82682 | 38067 ft | 457 kts | 302° |
| 2026-05-05 11:15 | 50.60331 | -6.91313 | 38078 ft | 458 kts | 301° |
| 2026-05-05 11:16 | 50.63563 | -6.99990 | 38077 ft | 459 kts | 301° |
| 2026-05-05 11:16 | 50.66765 | -7.08639 | 38079 ft | 455 kts | 302° |
| 2026-05-05 11:17 | 50.69969 | -7.17293 | 38077 ft | 459 kts | 301° |
| 2026-05-05 11:17 | 50.73177 | -7.26004 | 38072 ft | 455 kts | 301° |
| 2026-05-05 11:18 | 50.76357 | -7.34670 | 38077 ft | 455 kts | 301° |
| 2026-05-05 11:18 | 50.79507 | -7.43282 | 38084 ft | 453 kts | 301° |
| 2026-05-05 11:19 | 50.82647 | -7.51879 | 38089 ft | 454 kts | 301° |
| 2026-05-05 11:19 | 50.85803 | -7.60541 | 38102 ft | 455 kts | 301° |
| 2026-05-05 11:20 | 50.88973 | -7.69272 | 38092 ft | 458 kts | 301° |
| 2026-05-05 11:20 | 50.92129 | -7.78019 | 38097 ft | 456 kts | 301° |
| 2026-05-05 11:21 | 50.95269 | -7.86749 | 38102 ft | 455 kts | 301° |
| 2026-05-05 11:21 | 50.98381 | -7.95425 | 38099 ft | 455 kts | 301° |
| 2026-05-05 11:22 | 51.01394 | -8.04289 | 38099 ft | 455 kts | 297° |
| 2026-05-05 11:22 | 51.04092 | -8.13389 | 38099 ft | 454 kts | 295° |
| 2026-05-05 11:23 | 51.06721 | -8.22516 | 38103 ft | 454 kts | 295° |
| 2026-05-05 11:23 | 51.09350 | -8.31564 | 38105 ft | 452 kts | 296° |
| 2026-05-05 11:24 | 51.12007 | -8.40648 | 38107 ft | 451 kts | 296° |
| 2026-05-05 11:24 | 51.14657 | -8.49709 | 38106 ft | 452 kts | 296° |
| 2026-05-05 11:25 | 51.17308 | -8.58809 | 38103 ft | 453 kts | 296° |
| 2026-05-05 11:25 | 51.19932 | -8.67857 | 38107 ft | 452 kts | 295° |
| 2026-05-05 11:26 | 51.22562 | -8.76972 | 38108 ft | 453 kts | 295° |
| 2026-05-05 11:26 | 51.25190 | -8.86109 | 38115 ft | 453 kts | 295° |
| 2026-05-05 11:27 | 51.27810 | -8.95254 | 38115 ft | 452 kts | 295° |
| 2026-05-05 11:27 | 51.30422 | -9.04403 | 38118 ft | 452 kts | 295° |
| 2026-05-05 11:28 | 51.33007 | -9.13496 | 38113 ft | 452 kts | 295° |
| 2026-05-05 11:28 | 51.35596 | -9.22637 | 38121 ft | 451 kts | 295° |
| 2026-05-05 11:29 | 51.38179 | -9.31793 | 38119 ft | 451 kts | 295° |
| 2026-05-05 11:29 | 51.40752 | -9.40948 | 38121 ft | 451 kts | 295° |
| 2026-05-05 11:30 | 51.43318 | -9.50111 | 38125 ft | 451 kts | 294° |
| 2026-05-05 11:30 | 51.45871 | -9.59279 | 38125 ft | 450 kts | 294° |
| 2026-05-05 11:31 | 51.48423 | -9.68447 | 38120 ft | 450 kts | 294° |
| 2026-05-05 11:31 | 51.50944 | -9.77561 | 38127 ft | 449 kts | 294° |
| 2026-05-05 11:32 | 51.53474 | -9.86749 | 38121 ft | 449 kts | 294° |
| 2026-05-05 11:32 | 51.55996 | -9.95935 | 38123 ft | 449 kts | 294° |
| 2026-05-05 11:33 | 51.58548 | -10.05108 | 38127 ft | 449 kts | 296° |
| 2026-05-05 11:33 | 51.61335 | -10.14094 | 38134 ft | 449 kts | 297° |
| 2026-05-05 11:34 | 51.64197 | -10.23024 | 38128 ft | 449 kts | 297° |
| 2026-05-05 11:34 | 51.67020 | -10.31920 | 38133 ft | 449 kts | 297° |
| 2026-05-05 11:35 | 51.69834 | -10.40900 | 38135 ft | 449 kts | 297° |
| 2026-05-05 11:35 | 51.72632 | -10.49894 | 38136 ft | 449 kts | 297° |
| 2026-05-05 11:36 | 51.75427 | -10.58912 | 38139 ft | 449 kts | 297° |
| 2026-05-05 11:36 | 51.78214 | -10.67937 | 38138 ft | 449 kts | 297° |
| 2026-05-05 11:37 | 51.80994 | -10.76963 | 38137 ft | 448 kts | 296° |
| 2026-05-05 11:37 | 51.83292 | -10.84469 | 38143 ft | 448 kts | 296° |
| 2026-05-05 11:38 | 51.86059 | -10.93511 | 38144 ft | 448 kts | 296° |
| 2026-05-05 11:38 | 51.88817 | -11.02561 | 38150 ft | 448 kts | 296° |
| 2026-05-05 11:39 | 51.91565 | -11.11619 | 38151 ft | 447 kts | 296° |
| 2026-05-05 11:39 | 51.94300 | -11.20667 | 38153 ft | 447 kts | 296° |
| 2026-05-05 11:40 | 51.97018 | -11.29693 | 38152 ft | 448 kts | 296° |
| 2026-05-05 11:40 | 51.99753 | -11.38809 | 38155 ft | 448 kts | 296° |
| 2026-05-05 11:41 | 52.02473 | -11.47909 | 38162 ft | 447 kts | 296° |
| 2026-05-05 11:41 | 52.05184 | -11.57013 | 38159 ft | 448 kts | 296° |
| 2026-05-05 11:42 | 52.07870 | -11.66070 | 38158 ft | 448 kts | 296° |
| 2026-05-05 11:42 | 52.10577 | -11.75227 | 38166 ft | 448 kts | 296° |
| 2026-05-05 11:43 | 52.13268 | -11.84371 | 38166 ft | 448 kts | 295° |
| 2026-05-05 11:43 | 52.15948 | -11.93509 | 38169 ft | 446 kts | 295° |
| 2026-05-05 11:44 | 52.18620 | -12.02654 | 38164 ft | 446 kts | 295° |
| 2026-05-05 11:44 | 52.21260 | -12.11714 | 38175 ft | 444 kts | 295° |
| 2026-05-05 11:45 | 52.23902 | -12.20823 | 38177 ft | 444 kts | 295° |
| 2026-05-05 11:45 | 52.26538 | -12.29962 | 38172 ft | 445 kts | 295° |
| 2026-05-05 11:46 | 52.29171 | -12.39121 | 38176 ft | 446 kts | 295° |
| 2026-05-05 11:46 | 52.31808 | -12.48293 | 38178 ft | 445 kts | 295° |
| 2026-05-05 11:47 | 52.34429 | -12.57467 | 38187 ft | 446 kts | 295° |
| 2026-05-05 11:47 | 52.37038 | -12.66669 | 38179 ft | 446 kts | 295° |
| 2026-05-05 11:48 | 52.40926 | -12.80428 | 38183 ft | 445 kts | 295° |
| 2026-05-05 11:48 | 52.43524 | -12.89656 | 38187 ft | 445 kts | 295° |
| 2026-05-05 11:49 | 52.46117 | -12.98900 | 38186 ft | 445 kts | 295° |
| 2026-05-05 11:49 | 52.48699 | -13.08142 | 38192 ft | 445 kts | 294° |
| 2026-05-05 11:50 | 52.51253 | -13.17322 | 38196 ft | 445 kts | 294° |
| 2026-05-05 11:50 | 52.53818 | -13.26576 | 38197 ft | 445 kts | 294° |
| 2026-05-05 11:51 | 52.56374 | -13.35836 | 38197 ft | 445 kts | 294° |
| 2026-05-05 11:51 | 52.58923 | -13.45107 | 38196 ft | 444 kts | 294° |
| 2026-05-05 11:52 | 52.61461 | -13.54378 | 38202 ft | 445 kts | 294° |
| 2026-05-05 11:52 | 52.63992 | -13.63659 | 38205 ft | 445 kts | 294° |
| 2026-05-05 11:53 | 52.66519 | -13.72962 | 38200 ft | 444 kts | 294° |
| 2026-05-05 11:53 | 52.69020 | -13.82206 | 38206 ft | 444 kts | 294° |
| 2026-05-05 11:54 | 52.71526 | -13.91505 | 38208 ft | 444 kts | 294° |
| 2026-05-05 11:54 | 52.74028 | -14.00827 | 38210 ft | 444 kts | 294° |
| 2026-05-05 11:55 | 52.76520 | -14.10152 | 38211 ft | 444 kts | 294° |
| 2026-05-05 11:55 | 52.79005 | -14.19486 | 38211 ft | 443 kts | 294° |
| 2026-05-05 11:56 | 52.81479 | -14.28820 | 38216 ft | 443 kts | 293° |
| 2026-05-05 11:56 | 52.83933 | -14.38114 | 38219 ft | 443 kts | 293° |
| 2026-05-05 11:57 | 52.86390 | -14.47462 | 38221 ft | 443 kts | 293° |
| 2026-05-05 11:57 | 52.88842 | -14.56822 | 38217 ft | 443 kts | 293° |
| 2026-05-05 11:58 | 52.91282 | -14.66182 | 38219 ft | 443 kts | 293° |
| 2026-05-05 11:58 | 52.93718 | -14.75562 | 38224 ft | 443 kts | 293° |
| 2026-05-05 11:59 | 52.96145 | -14.84948 | 38210 ft | 443 kts | 293° |
| 2026-05-05 11:59 | 52.98564 | -14.94338 | 38218 ft | 443 kts | 293° |
| 2026-05-05 12:00 | 53.00920 | -15.03785 | 38226 ft | 442 kts | 291° |
| 2026-05-05 12:00 | 53.03082 | -15.13354 | 38234 ft | 442 kts | 290° |
| 2026-05-05 12:01 | 53.05184 | -15.22898 | 38222 ft | 442 kts | 290° |
| 2026-05-05 12:01 | 53.07307 | -15.32504 | 38223 ft | 442 kts | 290° |
| 2026-05-05 12:02 | 53.09439 | -15.42124 | 38225 ft | 442 kts | 290° |
| 2026-05-05 12:02 | 53.11566 | -15.51747 | 38231 ft | 442 kts | 290° |
| 2026-05-05 12:03 | 53.13669 | -15.61299 | 38230 ft | 442 kts | 290° |
| 2026-05-05 12:03 | 53.15777 | -15.70929 | 38230 ft | 442 kts | 290° |
| 2026-05-05 12:04 | 53.17875 | -15.80556 | 38231 ft | 442 kts | 290° |
| 2026-05-05 12:04 | 53.19969 | -15.90209 | 38230 ft | 442 kts | 290° |
| 2026-05-05 12:05 | 53.22052 | -15.99856 | 38234 ft | 442 kts | 290° |
| 2026-05-05 12:05 | 53.24112 | -16.09444 | 38233 ft | 442 kts | 289° |
| 2026-05-05 12:06 | 53.26177 | -16.19102 | 38233 ft | 442 kts | 289° |
| 2026-05-05 12:06 | 53.28237 | -16.28776 | 38236 ft | 442 kts | 289° |
| 2026-05-05 12:07 | 53.30286 | -16.38450 | 38234 ft | 442 kts | 289° |
| 2026-05-05 12:07 | 53.32328 | -16.48138 | 38238 ft | 442 kts | 289° |
| 2026-05-05 12:08 | 53.34363 | -16.57836 | 38254 ft | 442 kts | 289° |
| 2026-05-05 12:08 | 53.36390 | -16.67543 | 38229 ft | 442 kts | 289° |
| 2026-05-05 12:09 | 53.38401 | -16.77221 | 38237 ft | 442 kts | 289° |
| 2026-05-05 12:09 | 53.40411 | -16.86940 | 38239 ft | 442 kts | 289° |
| 2026-05-05 12:10 | 53.42415 | -16.96678 | 38243 ft | 442 kts | 289° |
| 2026-05-05 12:10 | 53.44414 | -17.06442 | 38244 ft | 442 kts | 289° |
| 2026-05-05 12:11 | 53.46403 | -17.16203 | 38243 ft | 442 kts | 289° |
| 2026-05-05 12:11 | 53.48386 | -17.25983 | 38243 ft | 442 kts | 289° |
| 2026-05-05 12:12 | 53.50346 | -17.35697 | 38247 ft | 442 kts | 289° |
| 2026-05-05 12:12 | 53.52312 | -17.45493 | 38244 ft | 442 kts | 289° |
| 2026-05-05 12:13 | 53.54267 | -17.55280 | 38246 ft | 442 kts | 289° |
| 2026-05-05 12:13 | 53.56220 | -17.65105 | 38247 ft | 442 kts | 288° |
| 2026-05-05 12:14 | 53.58147 | -17.74847 | 38250 ft | 442 kts | 288° |
| 2026-05-05 12:14 | 53.60087 | -17.84710 | 38249 ft | 442 kts | 288° |
| 2026-05-05 12:15 | 53.62012 | -17.94544 | 38244 ft | 442 kts | 288° |
| 2026-05-05 12:15 | 53.63933 | -18.04406 | 38256 ft | 442 kts | 288° |
| 2026-05-05 12:16 | 53.65833 | -18.14213 | 38253 ft | 443 kts | 288° |
| 2026-05-05 12:16 | 53.67737 | -18.24092 | 38250 ft | 443 kts | 288° |
| 2026-05-05 12:17 | 53.69635 | -18.33986 | 38255 ft | 443 kts | 288° |
| 2026-05-05 12:17 | 53.71527 | -18.43903 | 38260 ft | 443 kts | 288° |
| 2026-05-05 12:18 | 53.73408 | -18.53814 | 38255 ft | 443 kts | 288° |
| 2026-05-05 12:18 | 53.75267 | -18.63665 | 38256 ft | 443 kts | 288° |
| 2026-05-05 12:19 | 53.77133 | -18.73602 | 38257 ft | 443 kts | 288° |
| 2026-05-05 12:19 | 53.78990 | -18.83538 | 38260 ft | 443 kts | 288° |
| 2026-05-05 12:20 | 53.80843 | -18.93514 | 38257 ft | 444 kts | 288° |
| 2026-05-05 12:20 | 53.82685 | -19.03479 | 38260 ft | 444 kts | 288° |
| 2026-05-05 12:21 | 53.84520 | -19.13461 | 38261 ft | 444 kts | 288° |
| 2026-05-05 12:21 | 53.86349 | -19.23466 | 38259 ft | 444 kts | 288° |
| 2026-05-05 12:22 | 53.88156 | -19.33402 | 38262 ft | 444 kts | 288° |
| 2026-05-05 12:22 | 53.89968 | -19.43422 | 38262 ft | 444 kts | 287° |
| 2026-05-05 12:23 | 53.91770 | -19.53439 | 38265 ft | 444 kts | 287° |
| 2026-05-05 12:23 | 53.93566 | -19.63478 | 38266 ft | 444 kts | 287° |
| 2026-05-05 12:24 | 53.95053 | -19.71836 | 38269 ft | 444 kts | 287° |
| 2026-05-05 12:24 | 53.96837 | -19.81909 | 38269 ft | 445 kts | 287° |
| 2026-05-05 12:25 | 53.98608 | -19.91967 | 38266 ft | 445 kts | 287° |
| 2026-05-05 12:25 | 53.99998 | -20.02205 | 38267 ft | 446 kts | 278° |
| 2026-05-05 12:26 | 54.00578 | -20.12708 | 38270 ft | 447 kts | 275° |
| 2026-05-05 12:26 | 54.00994 | -20.23193 | 38270 ft | 447 kts | 275° |
| 2026-05-05 12:27 | 54.01382 | -20.33760 | 38277 ft | 447 kts | 275° |
| 2026-05-05 12:27 | 54.01773 | -20.44304 | 38265 ft | 447 kts | 275° |
| 2026-05-05 12:28 | 54.02169 | -20.54872 | 38278 ft | 447 kts | 275° |
| 2026-05-05 12:28 | 54.02563 | -20.65387 | 38277 ft | 448 kts | 275° |
| 2026-05-05 12:29 | 54.02940 | -20.75986 | 38274 ft | 448 kts | 275° |
| 2026-05-05 12:29 | 54.03303 | -20.86567 | 38274 ft | 448 kts | 275° |
| 2026-05-05 12:30 | 54.03660 | -20.97164 | 38280 ft | 448 kts | 275° |
| 2026-05-05 12:30 | 54.04009 | -21.07768 | 38272 ft | 448 kts | 275° |
| 2026-05-05 12:31 | 54.04350 | -21.18354 | 38280 ft | 448 kts | 275° |
| 2026-05-05 12:31 | 54.04680 | -21.28898 | 38286 ft | 448 kts | 275° |
| 2026-05-05 12:32 | 54.05002 | -21.39493 | 38279 ft | 449 kts | 275° |
| 2026-05-05 12:32 | 54.05315 | -21.50100 | 38279 ft | 449 kts | 275° |
| 2026-05-05 12:33 | 54.05618 | -21.60711 | 38280 ft | 449 kts | 275° |
| 2026-05-05 12:33 | 54.05913 | -21.71328 | 38285 ft | 449 kts | 275° |
| 2026-05-05 12:34 | 54.06198 | -21.81956 | 38284 ft | 449 kts | 275° |
| 2026-05-05 12:34 | 54.06473 | -21.92564 | 38285 ft | 449 kts | 274° |
| 2026-05-05 12:35 | 54.06740 | -22.03189 | 38290 ft | 449 kts | 274° |
| 2026-05-05 12:35 | 54.06995 | -22.13734 | 38286 ft | 449 kts | 274° |
| 2026-05-05 12:36 | 54.07243 | -22.24372 | 38286 ft | 449 kts | 274° |
| 2026-05-05 12:36 | 54.07481 | -22.34998 | 38280 ft | 449 kts | 274° |
| 2026-05-05 12:37 | 54.07711 | -22.45635 | 38291 ft | 449 kts | 274° |
| 2026-05-05 12:37 | 54.07929 | -22.56200 | 38291 ft | 449 kts | 274° |
| 2026-05-05 12:38 | 54.08139 | -22.66840 | 38290 ft | 449 kts | 274° |
| 2026-05-05 12:38 | 54.08341 | -22.77491 | 38277 ft | 449 kts | 274° |
| 2026-05-05 12:39 | 54.08532 | -22.88128 | 38288 ft | 449 kts | 274° |
| 2026-05-05 12:39 | 54.08713 | -22.98696 | 38303 ft | 449 kts | 274° |
| 2026-05-05 12:40 | 54.08886 | -23.09353 | 38290 ft | 450 kts | 274° |
| 2026-05-05 12:40 | 54.09050 | -23.20014 | 38286 ft | 450 kts | 274° |
| 2026-05-05 12:41 | 54.09205 | -23.30664 | 38290 ft | 450 kts | 274° |
| 2026-05-05 12:41 | 54.09350 | -23.41324 | 38293 ft | 450 kts | 274° |
| 2026-05-05 12:42 | 54.09485 | -23.51983 | 38295 ft | 450 kts | 274° |
| 2026-05-05 12:42 | 54.09611 | -23.62573 | 38294 ft | 450 kts | 274° |
| 2026-05-05 12:43 | 54.09728 | -23.73254 | 38298 ft | 450 kts | 274° |
| 2026-05-05 12:43 | 54.09835 | -23.83914 | 38298 ft | 450 kts | 274° |
| 2026-05-05 12:44 | 54.09933 | -23.94589 | 38292 ft | 450 kts | 274° |
| 2026-05-05 12:44 | 54.10021 | -24.05196 | 38300 ft | 450 kts | 273° |
| 2026-05-05 12:45 | 54.10100 | -24.15872 | 38307 ft | 450 kts | 273° |
| 2026-05-05 12:45 | 54.10170 | -24.26543 | 38301 ft | 450 kts | 273° |
| 2026-05-05 12:46 | 54.10230 | -24.37200 | 38301 ft | 450 kts | 273° |
| 2026-05-05 12:46 | 54.10281 | -24.47864 | 38301 ft | 450 kts | 273° |
| 2026-05-05 12:47 | 54.10322 | -24.58450 | 38302 ft | 450 kts | 273° |
| 2026-05-05 12:47 | 54.10354 | -24.69123 | 38305 ft | 450 kts | 273° |
| 2026-05-05 12:48 | 54.10376 | -24.79789 | 38299 ft | 450 kts | 273° |
| 2026-05-05 12:48 | 54.10389 | -24.90457 | 38313 ft | 450 kts | 273° |
| 2026-05-05 12:49 | 54.10393 | -25.01126 | 38303 ft | 450 kts | 273° |
| 2026-05-05 12:49 | 54.10387 | -25.11808 | 38308 ft | 450 kts | 273° |
| 2026-05-05 12:50 | 54.10372 | -25.22467 | 38309 ft | 450 kts | 273° |
| 2026-05-05 12:50 | 54.10347 | -25.33053 | 38313 ft | 450 kts | 273° |
| 2026-05-05 12:51 | 54.10314 | -25.43722 | 38312 ft | 450 kts | 272° |
| 2026-05-05 12:51 | 54.10270 | -25.54382 | 38319 ft | 450 kts | 273° |
| 2026-05-05 12:52 | 54.10217 | -25.65053 | 38316 ft | 450 kts | 272° |
| 2026-05-05 12:52 | 54.10155 | -25.75659 | 38320 ft | 449 kts | 272° |
| 2026-05-05 12:53 | 54.10083 | -25.86321 | 38323 ft | 449 kts | 272° |
| 2026-05-05 12:53 | 54.10003 | -25.96968 | 38323 ft | 449 kts | 272° |
| 2026-05-05 12:54 | 54.09864 | -26.12957 | 38323 ft | 449 kts | 272° |
| 2026-05-05 12:55 | 54.09759 | -26.23599 | 38290 ft | 449 kts | 272° |
| 2026-05-05 12:55 | 54.09646 | -26.34174 | 38320 ft | 448 kts | 272° |
| 2026-05-05 12:56 | 54.09523 | -26.44798 | 38324 ft | 448 kts | 272° |
| 2026-05-05 12:56 | 54.09391 | -26.55405 | 38322 ft | 448 kts | 272° |
| 2026-05-05 12:57 | 54.09250 | -26.66016 | 38320 ft | 448 kts | 272° |
| 2026-05-05 12:57 | 54.09099 | -26.76627 | 38324 ft | 448 kts | 272° |
| 2026-05-05 12:58 | 54.08940 | -26.87171 | 38321 ft | 448 kts | 272° |
| 2026-05-05 12:58 | 54.08770 | -26.97769 | 38331 ft | 447 kts | 272° |
| 2026-05-05 12:59 | 54.08592 | -27.08357 | 38330 ft | 447 kts | 272° |
| 2026-05-05 12:59 | 54.08405 | -27.18933 | 38330 ft | 447 kts | 272° |
| 2026-05-05 13:00 | 54.08106 | -27.34809 | 38332 ft | 447 kts | 272° |
| 2026-05-05 13:01 | 54.07677 | -27.55875 | 38333 ft | 446 kts | 271° |
| 2026-05-05 13:01 | 54.07448 | -27.66441 | 38333 ft | 446 kts | 271° |
| 2026-05-05 13:02 | 54.07210 | -27.76994 | 38333 ft | 446 kts | 271° |
| 2026-05-05 13:02 | 54.06963 | -27.87567 | 38333 ft | 446 kts | 271° |
| 2026-05-05 13:03 | 54.06706 | -27.98131 | 38333 ft | 446 kts | 271° |
| 2026-05-05 13:03 | 54.06441 | -28.08652 | 38334 ft | 448 kts | 271° |
| 2026-05-05 13:04 | 54.06165 | -28.19257 | 38333 ft | 449 kts | 271° |
| 2026-05-05 13:04 | 54.05878 | -28.29881 | 38333 ft | 449 kts | 271° |
| 2026-05-05 13:05 | 54.05582 | -28.40503 | 38333 ft | 449 kts | 271° |
| 2026-05-05 13:05 | 54.05280 | -28.51049 | 38333 ft | 449 kts | 271° |
| 2026-05-05 13:06 | 54.04965 | -28.61664 | 38333 ft | 449 kts | 271° |
| 2026-05-05 13:06 | 54.04642 | -28.72261 | 38336 ft | 448 kts | 271° |
| 2026-05-05 13:07 | 54.04309 | -28.82865 | 38334 ft | 448 kts | 271° |
| 2026-05-05 13:07 | 54.03967 | -28.93486 | 38336 ft | 448 kts | 271° |
| 2026-05-05 13:08 | 54.03616 | -29.04083 | 38335 ft | 449 kts | 271° |
| 2026-05-05 13:08 | 54.03257 | -29.14624 | 38303 ft | 449 kts | 271° |
| 2026-05-05 13:09 | 54.02887 | -29.25224 | 38335 ft | 448 kts | 271° |
| 2026-05-05 13:09 | 54.02507 | -29.35826 | 38337 ft | 448 kts | 271° |
| 2026-05-05 13:10 | 54.02120 | -29.46404 | 38337 ft | 448 kts | 271° |
| 2026-05-05 13:10 | 54.01722 | -29.56999 | 38332 ft | 448 kts | 270° |
| 2026-05-05 13:11 | 54.01315 | -29.67588 | 38325 ft | 448 kts | 270° |
| 2026-05-05 13:11 | 54.00901 | -29.78102 | 38327 ft | 448 kts | 270° |
| 2026-05-05 13:12 | 54.00477 | -29.88634 | 38331 ft | 446 kts | 270° |
| 2026-05-05 13:12 | 54.00133 | -29.97385 | 38329 ft | 445 kts | 272° |
| 2026-05-05 13:13 | 54.00327 | -30.07844 | 38331 ft | 442 kts | 277° |
| 2026-05-05 13:13 | 54.00726 | -30.18300 | 38330 ft | 442 kts | 278° |
| 2026-05-05 13:14 | 54.01157 | -30.28731 | 38328 ft | 442 kts | 278° |
| 2026-05-05 13:14 | 54.01574 | -30.39090 | 38328 ft | 441 kts | 277° |
| 2026-05-05 13:15 | 54.01977 | -30.49489 | 38328 ft | 440 kts | 277° |
| 2026-05-05 13:15 | 54.02364 | -30.59894 | 38330 ft | 440 kts | 277° |
| 2026-05-05 13:16 | 54.02727 | -30.70185 | 38332 ft | 432 kts | 277° |
| 2026-05-05 13:16 | 54.03083 | -30.80369 | 38326 ft | 431 kts | 277° |
| 2026-05-05 13:17 | 54.03432 | -30.90488 | 38325 ft | 431 kts | 277° |
| 2026-05-05 13:17 | 54.03777 | -31.00686 | 38314 ft | 432 kts | 276° |
| 2026-05-05 13:18 | 54.04111 | -31.10889 | 38322 ft | 432 kts | 276° |
| 2026-05-05 13:18 | 54.04436 | -31.21097 | 38311 ft | 432 kts | 276° |
| 2026-05-05 13:19 | 54.04752 | -31.31257 | 38326 ft | 432 kts | 275° |
| 2026-05-05 13:19 | 54.05063 | -31.41546 | 38317 ft | 433 kts | 275° |
| 2026-05-05 13:20 | 54.05362 | -31.51735 | 38310 ft | 433 kts | 275° |
| 2026-05-05 13:20 | 54.05653 | -31.61986 | 38306 ft | 433 kts | 275° |
| 2026-05-05 13:21 | 54.05944 | -31.72243 | 38313 ft | 434 kts | 274° |
| 2026-05-05 13:21 | 54.06216 | -31.82510 | 38298 ft | 434 kts | 274° |
| 2026-05-05 13:22 | 54.06479 | -31.92778 | 38306 ft | 434 kts | 274° |
| 2026-05-05 13:22 | 54.06734 | -32.02991 | 38304 ft | 434 kts | 274° |
| 2026-05-05 13:23 | 54.06983 | -32.13264 | 38299 ft | 434 kts | 274° |
| 2026-05-05 13:23 | 54.07224 | -32.23545 | 38304 ft | 435 kts | 274° |
| 2026-05-05 13:24 | 54.07456 | -32.33853 | 38297 ft | 435 kts | 273° |
| 2026-05-05 13:24 | 54.07680 | -32.44147 | 38294 ft | 435 kts | 272° |
| 2026-05-05 13:25 | 54.07894 | -32.54461 | 38289 ft | 435 kts | 272° |
| 2026-05-05 13:25 | 54.08097 | -32.64696 | 38290 ft | 435 kts | 272° |
| 2026-05-05 13:26 | 54.08294 | -32.75003 | 38286 ft | 435 kts | 272° |
| 2026-05-05 13:26 | 54.08482 | -32.85306 | 38285 ft | 435 kts | 272° |
| 2026-05-05 13:27 | 54.08670 | -32.95593 | 38279 ft | 434 kts | 271° |
| 2026-05-05 13:27 | 54.08849 | -33.05893 | 38273 ft | 434 kts | 271° |
| 2026-05-05 13:28 | 54.09000 | -33.16154 | 38274 ft | 433 kts | 271° |
| 2026-05-05 13:28 | 54.09153 | -33.26435 | 38275 ft | 435 kts | 271° |
| 2026-05-05 13:29 | 54.09304 | -33.36648 | 38269 ft | 432 kts | 271° |
| 2026-05-05 13:29 | 54.09431 | -33.46906 | 38267 ft | 433 kts | 271° |
| 2026-05-05 13:30 | 54.09554 | -33.57190 | 38261 ft | 434 kts | 269° |
| 2026-05-05 13:30 | 54.09671 | -33.67513 | 38258 ft | 437 kts | 270° |
| 2026-05-05 13:31 | 54.09781 | -33.77899 | 38254 ft | 439 kts | 269° |
| 2026-05-05 13:31 | 54.09870 | -33.88208 | 38256 ft | 438 kts | 269° |
| 2026-05-05 13:32 | 54.09969 | -33.98595 | 38257 ft | 439 kts | 269° |
| 2026-05-05 13:32 | 54.10056 | -34.09006 | 38245 ft | 439 kts | 269° |
| 2026-05-05 13:33 | 54.10121 | -34.19448 | 38257 ft | 441 kts | 268° |
| 2026-05-05 13:33 | 54.10173 | -34.29892 | 38256 ft | 441 kts | 268° |
| 2026-05-05 13:34 | 54.10240 | -34.40281 | 38244 ft | 441 kts | 269° |
| 2026-05-05 13:34 | 54.10317 | -34.50740 | 38246 ft | 441 kts | 269° |
| 2026-05-05 13:35 | 54.10365 | -34.61207 | 38240 ft | 441 kts | 269° |
| 2026-05-05 13:35 | 54.10398 | -34.71672 | 38233 ft | 442 kts | 268° |
| 2026-05-05 13:36 | 54.10395 | -34.82127 | 38240 ft | 441 kts | 267° |
| 2026-05-05 13:36 | 54.10411 | -34.92555 | 38224 ft | 445 kts | 268° |
| 2026-05-05 13:37 | 54.10416 | -35.03152 | 38230 ft | 449 kts | 267° |
| 2026-05-05 13:37 | 54.10394 | -35.13814 | 38212 ft | 449 kts | 267° |
| 2026-05-05 13:38 | 54.10369 | -35.24473 | 38213 ft | 449 kts | 267° |
| 2026-05-05 13:38 | 54.10341 | -35.35053 | 38205 ft | 449 kts | 267° |
| 2026-05-05 13:39 | 54.10308 | -35.45702 | 38204 ft | 449 kts | 266° |
| 2026-05-05 13:39 | 54.10257 | -35.56367 | 38199 ft | 450 kts | 266° |
| 2026-05-05 13:40 | 54.10204 | -35.67044 | 38193 ft | 450 kts | 266° |
| 2026-05-05 13:40 | 54.10142 | -35.77735 | 38190 ft | 450 kts | 266° |
| 2026-05-05 13:41 | 54.10069 | -35.88349 | 38180 ft | 451 kts | 266° |
| 2026-05-05 13:41 | 54.09986 | -35.99037 | 38172 ft | 452 kts | 266° |
| 2026-05-05 13:42 | 54.09893 | -36.09754 | 38178 ft | 452 kts | 265° |
| 2026-05-05 13:42 | 54.09791 | -36.20495 | 38169 ft | 453 kts | 265° |
| 2026-05-05 13:43 | 54.09678 | -36.31239 | 38158 ft | 454 kts | 265° |
| 2026-05-05 13:43 | 54.09557 | -36.41990 | 38156 ft | 454 kts | 265° |
| 2026-05-05 13:44 | 54.09425 | -36.52734 | 38151 ft | 454 kts | 265° |
| 2026-05-05 13:44 | 54.09285 | -36.63440 | 38145 ft | 454 kts | 265° |
| 2026-05-05 13:45 | 54.09135 | -36.74184 | 38137 ft | 453 kts | 265° |
| 2026-05-05 13:45 | 54.08975 | -36.84939 | 38141 ft | 454 kts | 264° |
| 2026-05-05 13:46 | 54.08805 | -36.95649 | 38131 ft | 455 kts | 264° |
| 2026-05-05 13:46 | 54.08626 | -37.06434 | 38128 ft | 455 kts | 264° |
| 2026-05-05 13:47 | 54.08436 | -37.17221 | 38122 ft | 455 kts | 264° |
| 2026-05-05 13:47 | 54.08237 | -37.27998 | 38120 ft | 455 kts | 264° |
| 2026-05-05 13:48 | 54.08029 | -37.38770 | 38122 ft | 455 kts | 264° |
| 2026-05-05 13:48 | 54.07810 | -37.49542 | 38116 ft | 456 kts | 264° |
| 2026-05-05 13:49 | 54.07583 | -37.60275 | 38113 ft | 456 kts | 264° |
| 2026-05-05 13:49 | 54.07345 | -37.71072 | 38125 ft | 456 kts | 264° |
| 2026-05-05 13:50 | 54.07096 | -37.81892 | 38109 ft | 458 kts | 264° |
| 2026-05-05 13:50 | 54.06838 | -37.92742 | 38103 ft | 458 kts | 264° |
| 2026-05-05 13:51 | 54.06569 | -38.03596 | 38104 ft | 458 kts | 263° |
| 2026-05-05 13:51 | 54.06294 | -38.14365 | 38100 ft | 458 kts | 263° |
| 2026-05-05 13:52 | 54.06007 | -38.25193 | 38100 ft | 458 kts | 263° |
| 2026-05-05 13:52 | 54.05709 | -38.36021 | 38100 ft | 458 kts | 263° |
| 2026-05-05 13:53 | 54.05402 | -38.46837 | 38095 ft | 457 kts | 263° |
| 2026-05-05 13:53 | 54.05087 | -38.57602 | 38094 ft | 457 kts | 263° |
| 2026-05-05 13:54 | 54.04761 | -38.68419 | 38095 ft | 458 kts | 263° |
| 2026-05-05 13:54 | 54.04424 | -38.79259 | 38091 ft | 459 kts | 262° |
| 2026-05-05 13:55 | 54.04078 | -38.90112 | 38084 ft | 459 kts | 262° |
| 2026-05-05 13:55 | 54.03721 | -39.00963 | 38089 ft | 458 kts | 262° |
| 2026-05-05 13:56 | 54.03357 | -39.11739 | 38089 ft | 458 kts | 262° |
| 2026-05-05 13:56 | 54.02982 | -39.22566 | 38083 ft | 458 kts | 262° |
| 2026-05-05 13:57 | 54.02597 | -39.33398 | 38171 ft | 460 kts | 262° |
| 2026-05-05 13:57 | 54.02399 | -39.38827 | 38403 ft | 459 kts | 262° |
| 2026-05-05 13:57 | 54.02202 | -39.44230 | 38712 ft | 457 kts | 262° |
| 2026-05-05 13:58 | 54.02003 | -39.49600 | 38949 ft | 455 kts | 262° |
| 2026-05-05 13:58 | 54.01801 | -39.54972 | 39098 ft | 455 kts | 262° |
| 2026-05-05 13:58 | 54.01385 | -39.65783 | 39264 ft | 459 kts | 262° |
| 2026-05-05 13:59 | 54.00963 | -39.76551 | 39563 ft | 458 kts | 262° |
| 2026-05-05 13:59 | 54.00747 | -39.81961 | 39715 ft | 458 kts | 262° |
| 2026-05-05 14:00 | 54.00310 | -39.92762 | 39998 ft | 458 kts | 262° |
| 2026-05-05 14:00 | 54.00159 | -39.96423 | 40056 ft | 459 kts | 262° |
| 2026-05-05 14:00 | 53.99636 | -40.07227 | 40081 ft | 464 kts | 261° |
| 2026-05-05 14:01 | 53.98994 | -40.18190 | 40078 ft | 465 kts | 260° |
| 2026-05-05 14:01 | 53.98336 | -40.29114 | 40082 ft | 464 kts | 260° |
| 2026-05-05 14:02 | 53.97678 | -40.40044 | 40073 ft | 464 kts | 260° |
| 2026-05-05 14:02 | 53.97022 | -40.50881 | 40080 ft | 464 kts | 260° |
| 2026-05-05 14:03 | 53.96352 | -40.61820 | 40077 ft | 465 kts | 260° |
| 2026-05-05 14:03 | 53.95670 | -40.72769 | 40072 ft | 466 kts | 260° |
| 2026-05-05 14:04 | 53.94984 | -40.83639 | 40071 ft | 465 kts | 260° |
| 2026-05-05 14:04 | 53.94284 | -40.94566 | 40068 ft | 465 kts | 260° |
| 2026-05-05 14:05 | 53.93573 | -41.05488 | 40062 ft | 465 kts | 260° |
| 2026-05-05 14:05 | 53.92854 | -41.16396 | 40063 ft | 465 kts | 260° |
| 2026-05-05 14:06 | 53.92127 | -41.27255 | 40065 ft | 466 kts | 260° |
| 2026-05-05 14:06 | 53.91385 | -41.38186 | 40058 ft | 466 kts | 259° |
| 2026-05-05 14:07 | 53.90634 | -41.49118 | 40054 ft | 467 kts | 259° |
| 2026-05-05 14:07 | 53.89871 | -41.60068 | 40052 ft | 467 kts | 259° |
| 2026-05-05 14:08 | 53.89097 | -41.71028 | 40049 ft | 467 kts | 259° |
| 2026-05-05 14:08 | 53.88314 | -41.81969 | 40045 ft | 467 kts | 259° |
| 2026-05-05 14:09 | 53.87526 | -41.92828 | 40049 ft | 468 kts | 259° |
| 2026-05-05 14:09 | 53.86722 | -42.03777 | 40042 ft | 468 kts | 259° |
| 2026-05-05 14:10 | 53.85908 | -42.14733 | 40042 ft | 468 kts | 259° |
| 2026-05-05 14:10 | 53.85090 | -42.25592 | 40027 ft | 467 kts | 259° |
| 2026-05-05 14:11 | 53.84256 | -42.36530 | 40022 ft | 467 kts | 259° |
| 2026-05-05 14:11 | 53.83413 | -42.47451 | 40039 ft | 467 kts | 259° |
| 2026-05-05 14:12 | 53.82561 | -42.58356 | 40025 ft | 467 kts | 259° |
| 2026-05-05 14:12 | 53.81700 | -42.69251 | 40012 ft | 467 kts | 258° |
| 2026-05-05 14:13 | 53.80835 | -42.80065 | 40007 ft | 467 kts | 258° |
| 2026-05-05 14:13 | 53.79954 | -42.90949 | 40019 ft | 466 kts | 258° |
| 2026-05-05 14:14 | 53.79064 | -43.01820 | 40001 ft | 466 kts | 258° |
| 2026-05-05 14:14 | 53.78163 | -43.12694 | 40009 ft | 466 kts | 258° |
| 2026-05-05 14:15 | 53.77254 | -43.23557 | 40004 ft | 465 kts | 258° |
| 2026-05-05 14:15 | 53.76336 | -43.34394 | 40004 ft | 466 kts | 258° |
| 2026-05-05 14:16 | 53.75409 | -43.45208 | 39992 ft | 468 kts | 258° |
| 2026-05-05 14:16 | 53.74468 | -43.56084 | 39991 ft | 468 kts | 258° |
| 2026-05-05 14:17 | 53.73515 | -43.66970 | 39983 ft | 468 kts | 258° |
| 2026-05-05 14:17 | 53.72556 | -43.77816 | 39979 ft | 467 kts | 258° |
| 2026-05-05 14:18 | 53.71589 | -43.88640 | 39979 ft | 466 kts | 257° |
| 2026-05-05 14:18 | 53.70610 | -43.99469 | 39977 ft | 466 kts | 257° |
| 2026-05-05 14:19 | 53.69623 | -44.10279 | 39966 ft | 466 kts | 257° |
| 2026-05-05 14:19 | 53.68634 | -44.21008 | 39963 ft | 466 kts | 257° |
| 2026-05-05 14:20 | 53.67626 | -44.31819 | 39977 ft | 467 kts | 257° |
| 2026-05-05 14:20 | 53.66606 | -44.42654 | 39944 ft | 467 kts | 257° |
| 2026-05-05 14:21 | 53.65578 | -44.53478 | 39944 ft | 467 kts | 257° |
| 2026-05-05 14:21 | 53.64540 | -44.64283 | 39944 ft | 467 kts | 257° |
| 2026-05-05 14:22 | 53.63493 | -44.75083 | 39938 ft | 467 kts | 257° |
| 2026-05-05 14:22 | 53.62436 | -44.85879 | 39927 ft | 467 kts | 257° |
| 2026-05-05 14:23 | 53.61376 | -44.96606 | 39923 ft | 466 kts | 257° |
| 2026-05-05 14:23 | 53.60302 | -45.07365 | 39922 ft | 466 kts | 257° |
| 2026-05-05 14:24 | 53.59217 | -45.18132 | 39914 ft | 466 kts | 257° |
| 2026-05-05 14:24 | 53.58123 | -45.28888 | 39905 ft | 467 kts | 257° |
| 2026-05-05 14:25 | 53.57013 | -45.39697 | 39897 ft | 468 kts | 256° |
| 2026-05-05 14:25 | 53.55904 | -45.50408 | 39912 ft | 468 kts | 256° |
| 2026-05-05 14:26 | 53.54778 | -45.61181 | 39890 ft | 467 kts | 256° |
| 2026-05-05 14:26 | 53.53645 | -45.71923 | 39881 ft | 466 kts | 256° |
| 2026-05-05 14:27 | 53.52501 | -45.82665 | 39881 ft | 466 kts | 256° |
| 2026-05-05 14:27 | 53.51349 | -45.93388 | 39864 ft | 466 kts | 256° |
| 2026-05-05 14:28 | 53.50195 | -46.04038 | 39865 ft | 466 kts | 256° |
| 2026-05-05 14:28 | 53.49020 | -46.14780 | 39878 ft | 467 kts | 256° |
| 2026-05-05 14:29 | 53.47837 | -46.25511 | 39861 ft | 467 kts | 256° |
| 2026-05-05 14:29 | 53.46646 | -46.36223 | 39854 ft | 467 kts | 256° |
| 2026-05-05 14:30 | 53.45444 | -46.46934 | 39847 ft | 467 kts | 256° |
| 2026-05-05 14:30 | 53.44241 | -46.57565 | 39851 ft | 466 kts | 256° |
| 2026-05-05 14:31 | 53.43022 | -46.68249 | 39831 ft | 466 kts | 256° |
| 2026-05-05 14:31 | 53.41794 | -46.78925 | 39831 ft | 466 kts | 256° |
| 2026-05-05 14:32 | 53.40556 | -46.89595 | 39825 ft | 466 kts | 256° |
| 2026-05-05 14:32 | 53.39306 | -47.00282 | 39829 ft | 466 kts | 256° |
| 2026-05-05 14:33 | 53.38046 | -47.10965 | 39806 ft | 468 kts | 255° |
| 2026-05-05 14:33 | 53.36775 | -47.21651 | 39808 ft | 468 kts | 255° |
| 2026-05-05 14:34 | 53.35502 | -47.32273 | 39813 ft | 468 kts | 255° |
| 2026-05-05 14:34 | 53.34215 | -47.42926 | 39790 ft | 467 kts | 255° |
| 2026-05-05 14:35 | 53.32919 | -47.53570 | 39790 ft | 467 kts | 255° |
| 2026-05-05 14:35 | 53.31613 | -47.64208 | 39785 ft | 467 kts | 255° |
| 2026-05-05 14:36 | 53.30298 | -47.74841 | 39774 ft | 467 kts | 255° |
| 2026-05-05 14:36 | 53.28981 | -47.85401 | 39771 ft | 466 kts | 255° |
| 2026-05-05 14:37 | 53.27646 | -47.96028 | 39778 ft | 466 kts | 255° |
| 2026-05-05 14:37 | 53.26303 | -48.06634 | 39770 ft | 467 kts | 255° |
| 2026-05-05 14:38 | 53.24949 | -48.17245 | 39755 ft | 467 kts | 255° |
| 2026-05-05 14:38 | 53.23585 | -48.27859 | 39749 ft | 467 kts | 255° |
| 2026-05-05 14:39 | 53.22213 | -48.38452 | 39746 ft | 467 kts | 255° |
| 2026-05-05 14:39 | 53.20842 | -48.48966 | 39740 ft | 467 kts | 255° |
| 2026-05-05 14:40 | 53.19451 | -48.59534 | 39729 ft | 465 kts | 255° |
| 2026-05-05 14:40 | 53.18058 | -48.70066 | 39728 ft | 464 kts | 254° |
| 2026-05-05 14:41 | 53.16657 | -48.80607 | 39727 ft | 465 kts | 255° |
| 2026-05-05 14:41 | 53.15254 | -48.91046 | 39717 ft | 465 kts | 255° |
| 2026-05-05 14:42 | 53.13829 | -49.01586 | 39712 ft | 465 kts | 254° |
| 2026-05-05 14:42 | 53.12385 | -49.12119 | 39717 ft | 465 kts | 254° |
| 2026-05-05 14:43 | 53.10956 | -49.22609 | 39699 ft | 464 kts | 254° |
| 2026-05-05 14:43 | 53.09539 | -49.33075 | 39697 ft | 463 kts | 255° |
| 2026-05-05 14:44 | 53.08082 | -49.43510 | 39689 ft | 462 kts | 255° |
| 2026-05-05 14:44 | 53.06627 | -49.53791 | 39679 ft | 458 kts | 254° |
| 2026-05-05 14:45 | 53.05179 | -49.64083 | 39677 ft | 457 kts | 255° |
| 2026-05-05 14:45 | 53.03723 | -49.74390 | 39677 ft | 457 kts | 254° |
| 2026-05-05 14:46 | 53.02249 | -49.84602 | 39679 ft | 458 kts | 253° |
| 2026-05-05 14:46 | 53.00774 | -49.94887 | 39659 ft | 458 kts | 253° |
| 2026-05-05 14:47 | 52.98829 | -50.04920 | 39659 ft | 455 kts | 248° |
| 2026-05-05 14:47 | 52.96926 | -50.13073 | 39650 ft | 455 kts | 246° |
| 2026-05-05 14:48 | 52.94566 | -50.22806 | 39659 ft | 455 kts | 245° |
| 2026-05-05 14:48 | 52.91812 | -50.34064 | 39643 ft | 453 kts | 246° |
| 2026-05-05 14:49 | 52.89463 | -50.43726 | 39645 ft | 452 kts | 246° |
| 2026-05-05 14:49 | 52.87505 | -50.51781 | 39639 ft | 452 kts | 246° |
| 2026-05-05 14:50 | 52.85138 | -50.61415 | 39639 ft | 452 kts | 245° |
| 2026-05-05 14:50 | 52.82775 | -50.71051 | 39642 ft | 452 kts | 246° |
| 2026-05-05 14:51 | 52.80402 | -50.80689 | 39625 ft | 453 kts | 246° |
| 2026-05-05 14:51 | 52.78017 | -50.90261 | 39621 ft | 454 kts | 246° |
| 2026-05-05 14:52 | 52.75612 | -50.99886 | 39621 ft | 453 kts | 246° |
| 2026-05-05 14:52 | 52.73208 | -51.09507 | 39614 ft | 453 kts | 246° |
| 2026-05-05 14:53 | 52.70774 | -51.19121 | 39607 ft | 453 kts | 246° |
| 2026-05-05 14:53 | 52.68344 | -51.28697 | 39600 ft | 452 kts | 246° |
| 2026-05-05 14:54 | 52.65944 | -51.38236 | 39607 ft | 452 kts | 245° |
| 2026-05-05 14:54 | 52.63501 | -51.47780 | 39605 ft | 452 kts | 245° |
| 2026-05-05 14:55 | 52.61060 | -51.57318 | 39603 ft | 452 kts | 245° |
| 2026-05-05 14:55 | 52.58619 | -51.66794 | 39594 ft | 452 kts | 246° |
| 2026-05-05 14:56 | 52.56177 | -51.76307 | 39590 ft | 450 kts | 246° |
| 2026-05-05 14:56 | 52.53711 | -51.85765 | 39588 ft | 450 kts | 245° |
| 2026-05-05 14:57 | 52.51247 | -51.95217 | 39587 ft | 450 kts | 245° |
| 2026-05-05 14:57 | 52.48776 | -52.04643 | 39588 ft | 450 kts | 246° |
| 2026-05-05 14:58 | 52.46315 | -52.14076 | 39581 ft | 450 kts | 245° |
| 2026-05-05 14:58 | 52.43841 | -52.23496 | 39578 ft | 450 kts | 245° |
| 2026-05-05 14:59 | 52.41370 | -52.32838 | 39577 ft | 449 kts | 245° |
| 2026-05-05 14:59 | 52.38883 | -52.42238 | 39577 ft | 449 kts | 245° |
| 2026-05-05 15:00 | 52.36790 | -52.50034 | 39581 ft | 449 kts | 245° |
| 2026-05-05 15:00 | 52.33850 | -52.60971 | 39582 ft | 449 kts | 245° |
| 2026-05-05 15:01 | 52.31332 | -52.70295 | 39578 ft | 448 kts | 245° |
| 2026-05-05 15:01 | 52.28853 | -52.79552 | 39581 ft | 447 kts | 245° |
| 2026-05-05 15:02 | 52.26338 | -52.88838 | 39581 ft | 447 kts | 245° |
| 2026-05-05 15:02 | 52.23812 | -52.98115 | 39571 ft | 447 kts | 245° |
| 2026-05-05 15:03 | 52.21260 | -53.07382 | 39570 ft | 447 kts | 245° |
| 2026-05-05 15:03 | 52.18726 | -53.16655 | 39572 ft | 447 kts | 245° |
| 2026-05-05 15:04 | 52.16191 | -53.25837 | 39575 ft | 447 kts | 245° |
| 2026-05-05 15:04 | 52.13647 | -53.35074 | 39573 ft | 447 kts | 245° |
| 2026-05-05 15:05 | 52.09810 | -53.48894 | 39570 ft | 447 kts | 245° |
| 2026-05-05 15:06 | 52.07219 | -53.58084 | 39572 ft | 447 kts | 245° |
| 2026-05-05 15:06 | 52.04646 | -53.67219 | 39571 ft | 447 kts | 245° |
| 2026-05-05 15:07 | 52.02086 | -53.76407 | 39580 ft | 447 kts | 245° |
| 2026-05-05 15:07 | 51.99494 | -53.85590 | 39563 ft | 447 kts | 245° |
| 2026-05-05 15:08 | 51.96893 | -53.94758 | 39570 ft | 447 kts | 244° |
| 2026-05-05 15:08 | 51.94274 | -54.03904 | 39568 ft | 447 kts | 245° |
| 2026-05-05 15:09 | 51.91658 | -54.13022 | 39568 ft | 450 kts | 245° |
| 2026-05-05 15:09 | 51.89015 | -54.22222 | 39565 ft | 451 kts | 245° |
| 2026-05-05 15:10 | 51.86367 | -54.31409 | 39570 ft | 451 kts | 245° |
| 2026-05-05 15:10 | 51.83711 | -54.40589 | 39571 ft | 450 kts | 245° |
| 2026-05-05 15:11 | 51.81050 | -54.49750 | 39572 ft | 450 kts | 245° |
| 2026-05-05 15:11 | 51.78021 | -54.58585 | 39571 ft | 448 kts | 239° |
| 2026-05-05 15:12 | 51.74815 | -54.67144 | 39569 ft | 448 kts | 239° |
| 2026-05-05 15:12 | 51.71543 | -54.75720 | 39570 ft | 448 kts | 239° |
| 2026-05-05 15:13 | 51.68269 | -54.84280 | 39568 ft | 448 kts | 239° |
| 2026-05-05 15:13 | 51.64997 | -54.92828 | 39568 ft | 447 kts | 239° |
| 2026-05-05 15:14 | 51.61753 | -55.01285 | 39577 ft | 445 kts | 239° |
| 2026-05-05 15:14 | 51.58495 | -55.09752 | 39578 ft | 445 kts | 239° |
| 2026-05-05 15:15 | 51.55234 | -55.18201 | 39573 ft | 445 kts | 238° |
| 2026-05-05 15:15 | 51.51967 | -55.26648 | 39565 ft | 444 kts | 238° |
| 2026-05-05 15:16 | 51.48697 | -55.35070 | 39564 ft | 444 kts | 238° |
| 2026-05-05 15:16 | 51.45427 | -55.43475 | 39570 ft | 444 kts | 238° |
| 2026-05-05 15:17 | 51.42167 | -55.51793 | 39568 ft | 444 kts | 238° |
| 2026-05-05 15:17 | 51.38885 | -55.60167 | 39564 ft | 444 kts | 237° |
| 2026-05-05 15:18 | 51.35594 | -55.68515 | 39551 ft | 444 kts | 238° |
| 2026-05-05 15:18 | 51.32296 | -55.76888 | 39561 ft | 445 kts | 238° |
| 2026-05-05 15:19 | 51.28979 | -55.85248 | 39563 ft | 446 kts | 238° |
| 2026-05-05 15:19 | 51.25645 | -55.93617 | 39567 ft | 447 kts | 237° |
| 2026-05-05 15:20 | 51.22296 | -56.01971 | 39564 ft | 446 kts | 237° |
| 2026-05-05 15:20 | 51.18959 | -56.10328 | 39564 ft | 447 kts | 238° |
| 2026-05-05 15:21 | 51.15597 | -56.18726 | 39563 ft | 451 kts | 238° |
| 2026-05-05 15:21 | 51.12218 | -56.27071 | 39553 ft | 450 kts | 238° |
| 2026-05-05 15:22 | 51.08821 | -56.35470 | 39553 ft | 450 kts | 238° |
| 2026-05-05 15:22 | 51.05431 | -56.43838 | 39554 ft | 450 kts | 238° |
| 2026-05-05 15:23 | 51.02077 | -56.52126 | 39560 ft | 445 kts | 239° |
| 2026-05-05 15:23 | 50.98745 | -56.60320 | 39562 ft | 438 kts | 238° |
| 2026-05-05 15:24 | 50.95410 | -56.68427 | 39565 ft | 438 kts | 238° |
| 2026-05-05 15:24 | 50.92086 | -56.76526 | 39567 ft | 439 kts | 238° |
| 2026-05-05 15:25 | 50.88753 | -56.84633 | 39576 ft | 437 kts | 238° |
| 2026-05-05 15:25 | 50.85442 | -56.92679 | 39580 ft | 435 kts | 238° |
| 2026-05-05 15:26 | 50.82147 | -57.00626 | 39592 ft | 434 kts | 238° |
| 2026-05-05 15:26 | 50.78826 | -57.08601 | 39592 ft | 434 kts | 238° |
| 2026-05-05 15:27 | 50.75512 | -57.16572 | 39600 ft | 434 kts | 238° |
| 2026-05-05 15:27 | 50.72169 | -57.24516 | 39608 ft | 436 kts | 237° |
| 2026-05-05 15:28 | 50.68806 | -57.32522 | 39625 ft | 438 kts | 237° |
| 2026-05-05 15:28 | 50.65446 | -57.40540 | 39642 ft | 438 kts | 237° |
| 2026-05-05 15:29 | 50.62082 | -57.48494 | 39644 ft | 439 kts | 237° |
| 2026-05-05 15:29 | 50.58704 | -57.56480 | 39649 ft | 438 kts | 237° |
| 2026-05-05 15:30 | 50.55304 | -57.64467 | 39663 ft | 438 kts | 237° |
| 2026-05-05 15:30 | 50.51913 | -57.72440 | 39695 ft | 439 kts | 237° |
| 2026-05-05 15:31 | 50.48515 | -57.80451 | 39685 ft | 442 kts | 237° |
| 2026-05-05 15:31 | 50.45084 | -57.88479 | 39700 ft | 442 kts | 237° |
| 2026-05-05 15:32 | 50.41653 | -57.96405 | 39699 ft | 442 kts | 237° |
| 2026-05-05 15:32 | 50.38216 | -58.04395 | 39712 ft | 442 kts | 237° |
| 2026-05-05 15:33 | 50.34768 | -58.12368 | 39713 ft | 442 kts | 237° |
| 2026-05-05 15:33 | 50.31312 | -58.20346 | 39710 ft | 442 kts | 237° |
| 2026-05-05 15:34 | 50.27856 | -58.28301 | 39712 ft | 442 kts | 238° |
| 2026-05-05 15:34 | 50.24404 | -58.36182 | 39719 ft | 442 kts | 237° |
| 2026-05-05 15:35 | 50.20925 | -58.44098 | 39725 ft | 441 kts | 237° |
| 2026-05-05 15:35 | 50.17456 | -58.52015 | 39728 ft | 442 kts | 237° |
| 2026-05-05 15:36 | 50.13975 | -58.59903 | 39737 ft | 441 kts | 237° |
| 2026-05-05 15:36 | 50.10502 | -58.67798 | 39727 ft | 442 kts | 237° |
| 2026-05-05 15:37 | 50.06997 | -58.75693 | 39735 ft | 443 kts | 237° |
| 2026-05-05 15:37 | 50.04084 | -58.82243 | 39736 ft | 443 kts | 237° |
| 2026-05-05 15:38 | 50.00571 | -58.90126 | 39755 ft | 443 kts | 237° |
| 2026-05-05 15:38 | 49.97062 | -58.97983 | 39745 ft | 441 kts | 237° |
| 2026-05-05 15:39 | 49.93568 | -59.05780 | 39751 ft | 438 kts | 237° |
| 2026-05-05 15:39 | 49.90089 | -59.13523 | 39751 ft | 437 kts | 237° |
| 2026-05-05 15:40 | 49.86626 | -59.21206 | 39755 ft | 437 kts | 237° |
| 2026-05-05 15:40 | 49.83131 | -59.28939 | 39763 ft | 437 kts | 237° |
| 2026-05-05 15:41 | 49.79635 | -59.36653 | 39755 ft | 437 kts | 237° |
| 2026-05-05 15:41 | 49.76140 | -59.44339 | 39768 ft | 436 kts | 237° |
| 2026-05-05 15:42 | 49.72644 | -59.52006 | 39770 ft | 436 kts | 237° |
| 2026-05-05 15:42 | 49.69139 | -59.59673 | 39770 ft | 436 kts | 237° |
| 2026-05-05 15:43 | 49.65646 | -59.67288 | 39769 ft | 436 kts | 237° |
| 2026-05-05 15:43 | 49.62125 | -59.74946 | 39772 ft | 437 kts | 237° |
| 2026-05-05 15:44 | 49.58595 | -59.82599 | 39775 ft | 438 kts | 237° |
| 2026-05-05 15:44 | 49.55061 | -59.90239 | 39776 ft | 438 kts | 237° |
| 2026-05-05 15:45 | 49.51537 | -59.97836 | 39780 ft | 438 kts | 237° |
| 2026-05-05 15:45 | 49.47992 | -60.05456 | 39780 ft | 438 kts | 236° |
| 2026-05-05 15:46 | 49.44432 | -60.13090 | 39779 ft | 439 kts | 236° |
| 2026-05-05 15:46 | 49.40860 | -60.20725 | 39781 ft | 440 kts | 236° |
| 2026-05-05 15:47 | 49.37281 | -60.28351 | 39783 ft | 440 kts | 236° |
| 2026-05-05 15:47 | 49.33692 | -60.35981 | 39782 ft | 440 kts | 236° |
| 2026-05-05 15:48 | 49.30124 | -60.43543 | 39787 ft | 440 kts | 236° |
| 2026-05-05 15:48 | 49.26531 | -60.51135 | 39795 ft | 440 kts | 236° |
| 2026-05-05 15:49 | 49.22931 | -60.58722 | 39793 ft | 440 kts | 236° |
| 2026-05-05 15:49 | 49.19325 | -60.66301 | 39795 ft | 440 kts | 236° |
| 2026-05-05 15:50 | 49.15731 | -60.73834 | 39791 ft | 440 kts | 236° |
| 2026-05-05 15:50 | 49.12121 | -60.81376 | 39805 ft | 439 kts | 236° |
| 2026-05-05 15:51 | 49.08512 | -60.88897 | 39805 ft | 439 kts | 236° |
| 2026-05-05 15:51 | 49.04899 | -60.96404 | 39798 ft | 439 kts | 236° |
| 2026-05-05 15:52 | 49.01277 | -61.03909 | 39795 ft | 439 kts | 236° |
| 2026-05-05 15:52 | 48.97649 | -61.11406 | 39807 ft | 439 kts | 236° |
| 2026-05-05 15:53 | 48.94014 | -61.18896 | 39809 ft | 439 kts | 236° |
| 2026-05-05 15:53 | 48.90379 | -61.26363 | 39807 ft | 439 kts | 236° |
| 2026-05-05 15:54 | 48.86766 | -61.33767 | 39814 ft | 439 kts | 236° |
| 2026-05-05 15:54 | 48.83124 | -61.41207 | 39809 ft | 438 kts | 236° |
| 2026-05-05 15:55 | 48.79493 | -61.48603 | 39813 ft | 436 kts | 236° |
| 2026-05-05 15:55 | 48.75865 | -61.55976 | 39815 ft | 436 kts | 236° |
| 2026-05-05 15:56 | 48.72230 | -61.63342 | 39813 ft | 436 kts | 236° |
| 2026-05-05 15:56 | 48.68620 | -61.70638 | 39807 ft | 436 kts | 236° |
| 2026-05-05 15:57 | 48.64979 | -61.77975 | 39821 ft | 435 kts | 236° |
| 2026-05-05 15:57 | 48.61345 | -61.85280 | 39810 ft | 434 kts | 236° |
| 2026-05-05 15:58 | 48.57712 | -61.92562 | 39815 ft | 434 kts | 236° |
| 2026-05-05 15:58 | 48.54069 | -61.99845 | 39799 ft | 434 kts | 236° |
| 2026-05-05 15:59 | 48.50449 | -62.07062 | 39812 ft | 432 kts | 236° |
| 2026-05-05 15:59 | 48.46817 | -62.14282 | 39812 ft | 431 kts | 236° |
| 2026-05-05 16:00 | 48.43185 | -62.21486 | 39819 ft | 431 kts | 236° |
| 2026-05-05 16:00 | 48.39556 | -62.28664 | 39815 ft | 430 kts | 236° |
| 2026-05-05 16:01 | 48.35956 | -62.35765 | 39812 ft | 427 kts | 236° |
| 2026-05-05 16:01 | 48.32365 | -62.42826 | 39813 ft | 424 kts | 236° |
| 2026-05-05 16:02 | 48.28779 | -62.49865 | 39814 ft | 424 kts | 236° |
| 2026-05-05 16:02 | 48.25190 | -62.56891 | 39796 ft | 424 kts | 236° |
| 2026-05-05 16:03 | 48.21615 | -62.63872 | 39795 ft | 424 kts | 236° |
| 2026-05-05 16:03 | 48.18019 | -62.70873 | 39802 ft | 422 kts | 236° |
| 2026-05-05 16:04 | 48.14435 | -62.77832 | 39799 ft | 422 kts | 236° |
| 2026-05-05 16:04 | 48.10837 | -62.84803 | 39804 ft | 422 kts | 236° |
| 2026-05-05 16:05 | 48.07263 | -62.91710 | 39804 ft | 422 kts | 235° |
| 2026-05-05 16:05 | 48.03663 | -62.98649 | 39803 ft | 422 kts | 235° |
| 2026-05-05 16:06 | 48.00051 | -63.05594 | 39796 ft | 423 kts | 235° |
| 2026-05-05 16:06 | 47.96458 | -63.12484 | 39796 ft | 423 kts | 235° |
| 2026-05-05 16:07 | 47.92839 | -63.19408 | 39793 ft | 423 kts | 235° |
| 2026-05-05 16:07 | 47.89222 | -63.26309 | 39793 ft | 423 kts | 235° |
| 2026-05-05 16:08 | 47.85588 | -63.33225 | 39790 ft | 423 kts | 235° |
| 2026-05-05 16:08 | 47.81955 | -63.40121 | 39790 ft | 423 kts | 235° |
| 2026-05-05 16:09 | 47.78344 | -63.46960 | 39782 ft | 423 kts | 235° |
| 2026-05-05 16:09 | 47.74703 | -63.53836 | 39782 ft | 423 kts | 235° |
| 2026-05-05 16:10 | 47.71059 | -63.60702 | 39785 ft | 423 kts | 234° |
| 2026-05-05 16:10 | 47.67406 | -63.67568 | 39788 ft | 423 kts | 234° |
| 2026-05-05 16:11 | 47.63752 | -63.74416 | 39783 ft | 423 kts | 234° |
| 2026-05-05 16:12 | 47.56451 | -63.88050 | 39779 ft | 424 kts | 234° |
| 2026-05-05 16:13 | 47.47261 | -64.05112 | 39777 ft | 424 kts | 234° |
| 2026-05-05 16:13 | 47.43573 | -64.11929 | 39777 ft | 424 kts | 234° |
| 2026-05-05 16:14 | 47.36212 | -64.25487 | 39781 ft | 424 kts | 234° |
| 2026-05-05 16:15 | 47.28827 | -64.39021 | 39785 ft | 424 kts | 234° |
| 2026-05-05 16:16 | 47.21408 | -64.52550 | 39782 ft | 424 kts | 234° |
| 2026-05-05 16:17 | 47.15830 | -64.62678 | 39784 ft | 424 kts | 234° |
| 2026-05-05 16:18 | 47.10243 | -64.72784 | 39765 ft | 424 kts | 234° |
| 2026-05-05 16:19 | 47.04656 | -64.82852 | 39772 ft | 423 kts | 234° |
| 2026-05-05 16:19 | 46.99094 | -64.92841 | 39773 ft | 423 kts | 234° |
| 2026-05-05 16:20 | 46.91626 | -65.06193 | 39771 ft | 423 kts | 233° |
| 2026-05-05 16:22 | 46.82313 | -65.22753 | 39784 ft | 422 kts | 233° |
| 2026-05-05 16:23 | 46.74824 | -65.35996 | 39786 ft | 422 kts | 233° |
| 2026-05-05 16:23 | 46.69220 | -65.45867 | 39784 ft | 423 kts | 233° |
| 2026-05-05 16:24 | 46.65464 | -65.52461 | 39789 ft | 423 kts | 233° |
| 2026-05-05 16:25 | 46.59824 | -65.62337 | 39793 ft | 423 kts | 233° |
| 2026-05-05 16:25 | 46.54806 | -65.71092 | 39795 ft | 423 kts | 233° |
| 2026-05-05 16:26 | 46.47273 | -65.84185 | 39813 ft | 423 kts | 233° |
| 2026-05-05 16:27 | 46.43489 | -65.90738 | 39794 ft | 424 kts | 233° |
| 2026-05-05 16:27 | 46.39701 | -65.97284 | 39792 ft | 424 kts | 233° |
| 2026-05-05 16:28 | 46.35911 | -66.03817 | 39792 ft | 424 kts | 233° |
| 2026-05-05 16:28 | 46.32112 | -66.10351 | 39801 ft | 424 kts | 233° |
| 2026-05-05 16:29 | 46.28316 | -66.16864 | 39793 ft | 423 kts | 232° |
| 2026-05-05 16:29 | 46.24543 | -66.23322 | 39788 ft | 422 kts | 232° |
| 2026-05-05 16:30 | 46.20751 | -66.29798 | 39786 ft | 422 kts | 232° |
| 2026-05-05 16:30 | 46.16953 | -66.36267 | 39795 ft | 422 kts | 232° |
| 2026-05-05 16:31 | 46.13177 | -66.42685 | 39798 ft | 422 kts | 232° |
| 2026-05-05 16:31 | 46.09375 | -66.49130 | 39788 ft | 421 kts | 232° |
| 2026-05-05 16:32 | 46.05573 | -66.55562 | 39798 ft | 421 kts | 232° |
| 2026-05-05 16:32 | 46.01769 | -66.61981 | 39793 ft | 421 kts | 232° |
| 2026-05-05 16:33 | 45.97955 | -66.68406 | 39789 ft | 421 kts | 232° |
| 2026-05-05 16:33 | 45.94168 | -66.74767 | 39799 ft | 421 kts | 232° |
| 2026-05-05 16:34 | 45.90333 | -66.81192 | 39805 ft | 421 kts | 232° |
| 2026-05-05 16:34 | 45.86538 | -66.87537 | 39799 ft | 421 kts | 232° |
| 2026-05-05 16:35 | 45.82724 | -66.93900 | 39793 ft | 421 kts | 232° |
| 2026-05-05 16:35 | 45.78904 | -67.00259 | 39800 ft | 420 kts | 232° |
| 2026-05-05 16:36 | 45.75097 | -67.06581 | 39808 ft | 418 kts | 232° |
| 2026-05-05 16:36 | 45.71294 | -67.12880 | 39807 ft | 417 kts | 232° |
| 2026-05-05 16:37 | 45.67501 | -67.19152 | 39791 ft | 417 kts | 232° |
| 2026-05-05 16:37 | 45.63729 | -67.25374 | 39804 ft | 416 kts | 232° |
| 2026-05-05 16:38 | 45.59939 | -67.31611 | 39800 ft | 416 kts | 232° |
| 2026-05-05 16:38 | 45.56147 | -67.37838 | 39807 ft | 416 kts | 232° |
| 2026-05-05 16:39 | 45.52344 | -67.44069 | 39801 ft | 416 kts | 232° |
| 2026-05-05 16:39 | 45.48542 | -67.50283 | 39813 ft | 415 kts | 232° |
| 2026-05-05 16:40 | 45.44746 | -67.56472 | 39813 ft | 415 kts | 232° |
| 2026-05-05 16:40 | 45.40967 | -67.62621 | 39810 ft | 415 kts | 232° |
| 2026-05-05 16:41 | 45.37167 | -67.68792 | 39822 ft | 415 kts | 232° |
| 2026-05-05 16:41 | 45.33346 | -67.74954 | 39820 ft | 415 kts | 231° |
| 2026-05-05 16:42 | 45.29481 | -67.81052 | 39833 ft | 415 kts | 231° |
| 2026-05-05 16:42 | 45.25612 | -67.87143 | 39832 ft | 415 kts | 231° |
| 2026-05-05 16:43 | 45.21761 | -67.93196 | 39822 ft | 413 kts | 231° |
| 2026-05-05 16:43 | 45.17910 | -67.99238 | 39831 ft | 413 kts | 231° |
| 2026-05-05 16:44 | 45.14043 | -68.05294 | 39835 ft | 413 kts | 231° |
| 2026-05-05 16:44 | 45.10177 | -68.11334 | 39836 ft | 413 kts | 231° |
| 2026-05-05 16:45 | 45.06328 | -68.17335 | 39842 ft | 413 kts | 231° |
| 2026-05-05 16:45 | 45.02459 | -68.23355 | 39833 ft | 414 kts | 231° |
| 2026-05-05 16:46 | 44.98578 | -68.29380 | 39841 ft | 414 kts | 230° |
| 2026-05-05 16:46 | 44.94720 | -68.35356 | 39842 ft | 414 kts | 230° |
| 2026-05-05 16:47 | 44.90838 | -68.41356 | 39843 ft | 414 kts | 230° |
| 2026-05-05 16:47 | 44.86955 | -68.47344 | 39836 ft | 412 kts | 230° |
| 2026-05-05 16:48 | 44.83100 | -68.53276 | 39837 ft | 409 kts | 230° |
| 2026-05-05 16:48 | 44.79255 | -68.59181 | 39824 ft | 409 kts | 230° |
| 2026-05-05 16:49 | 44.75409 | -68.65077 | 39823 ft | 409 kts | 230° |
| 2026-05-05 16:49 | 44.71556 | -68.70969 | 39823 ft | 409 kts | 230° |
| 2026-05-05 16:50 | 44.67731 | -68.76804 | 39824 ft | 408 kts | 230° |
| 2026-05-05 16:50 | 44.63886 | -68.82659 | 39825 ft | 407 kts | 230° |
| 2026-05-05 16:51 | 44.60040 | -68.88504 | 39818 ft | 407 kts | 230° |
| 2026-05-05 16:51 | 44.56190 | -68.94342 | 39818 ft | 408 kts | 230° |
| 2026-05-05 16:52 | 44.52331 | -69.00183 | 39818 ft | 409 kts | 230° |
| 2026-05-05 16:52 | 44.48462 | -69.06025 | 39826 ft | 409 kts | 230° |
| 2026-05-05 16:53 | 44.44591 | -69.11857 | 39832 ft | 409 kts | 230° |
| 2026-05-05 16:53 | 44.40716 | -69.17684 | 39830 ft | 409 kts | 230° |
| 2026-05-05 16:54 | 44.36826 | -69.23522 | 39827 ft | 410 kts | 230° |
| 2026-05-05 16:54 | 44.32934 | -69.29350 | 39831 ft | 410 kts | 230° |
| 2026-05-05 16:55 | 44.29042 | -69.35166 | 39847 ft | 410 kts | 230° |
| 2026-05-05 16:55 | 44.25163 | -69.40950 | 39844 ft | 410 kts | 230° |
| 2026-05-05 16:56 | 44.21256 | -69.46765 | 39849 ft | 411 kts | 230° |
| 2026-05-05 16:56 | 44.17343 | -69.52576 | 39861 ft | 411 kts | 230° |
| 2026-05-05 16:57 | 44.13456 | -69.58336 | 39865 ft | 410 kts | 230° |
| 2026-05-05 16:57 | 44.09553 | -69.64108 | 39865 ft | 409 kts | 230° |
| 2026-05-05 16:58 | 44.05647 | -69.69873 | 39869 ft | 410 kts | 230° |
| 2026-05-05 16:58 | 44.01724 | -69.75650 | 39868 ft | 410 kts | 230° |
| 2026-05-05 16:59 | 43.97804 | -69.81411 | 39868 ft | 410 kts | 229° |
| 2026-05-05 16:59 | 43.93909 | -69.87124 | 39860 ft | 411 kts | 229° |
| 2026-05-05 17:00 | 43.89975 | -69.92882 | 39859 ft | 411 kts | 229° |
| 2026-05-05 17:00 | 43.86028 | -69.98647 | 39860 ft | 411 kts | 229° |
| 2026-05-05 17:01 | 43.82084 | -70.04396 | 39859 ft | 411 kts | 229° |
| 2026-05-05 17:01 | 43.78137 | -70.10137 | 39858 ft | 412 kts | 229° |
| 2026-05-05 17:02 | 43.74202 | -70.15850 | 39825 ft | 412 kts | 229° |
| 2026-05-05 17:02 | 43.70240 | -70.21589 | 39822 ft | 413 kts | 229° |
| 2026-05-05 17:03 | 43.66270 | -70.27329 | 39822 ft | 413 kts | 229° |
| 2026-05-05 17:03 | 43.62297 | -70.33060 | 39847 ft | 413 kts | 229° |
| 2026-05-05 17:04 | 43.58322 | -70.38784 | 39837 ft | 412 kts | 229° |
| 2026-05-05 17:04 | 43.54353 | -70.44487 | 39828 ft | 411 kts | 229° |
| 2026-05-05 17:05 | 43.50405 | -70.50149 | 39819 ft | 412 kts | 229° |
| 2026-05-05 17:05 | 43.46426 | -70.55845 | 39809 ft | 414 kts | 229° |
| 2026-05-05 17:06 | 43.42032 | -70.61007 | 39804 ft | 420 kts | 215° |
| 2026-05-05 17:06 | 43.36663 | -70.64340 | 39802 ft | 426 kts | 204° |
| 2026-05-05 17:07 | 43.31059 | -70.67066 | 39808 ft | 428 kts | 204° |
| 2026-05-05 17:07 | 43.25431 | -70.69808 | 39814 ft | 429 kts | 204° |
| 2026-05-05 17:08 | 43.19809 | -70.72556 | 39822 ft | 429 kts | 204° |
| 2026-05-05 17:08 | 43.14217 | -70.75291 | 39814 ft | 429 kts | 204° |
| 2026-05-05 17:09 | 43.08599 | -70.78036 | 39820 ft | 429 kts | 204° |
| 2026-05-05 17:09 | 43.03013 | -70.80759 | 39807 ft | 429 kts | 204° |
| 2026-05-05 17:10 | 42.97398 | -70.83492 | 39810 ft | 428 kts | 204° |
| 2026-05-05 17:10 | 42.91770 | -70.86226 | 39827 ft | 429 kts | 204° |
| 2026-05-05 17:11 | 42.86141 | -70.88956 | 39861 ft | 429 kts | 204° |
| 2026-05-05 17:11 | 42.80525 | -70.91672 | 39858 ft | 428 kts | 204° |
| 2026-05-05 17:12 | 42.74951 | -70.94364 | 39861 ft | 428 kts | 203° |
| 2026-05-05 17:12 | 42.69370 | -70.97053 | 39860 ft | 428 kts | 203° |
| 2026-05-05 17:13 | 42.64687 | -70.99306 | 39858 ft | 428 kts | 203° |
| 2026-05-05 17:13 | 42.59192 | -71.01945 | 39857 ft | 428 kts | 203° |
| 2026-05-05 17:14 | 42.53650 | -71.04598 | 39861 ft | 414 kts | 203° |
| 2026-05-05 17:14 | 42.48324 | -71.07142 | 39698 ft | 400 kts | 203° |
| 2026-05-05 17:15 | 42.45704 | -71.08395 | 39467 ft | 398 kts | 203° |
| 2026-05-05 17:15 | 42.43094 | -71.09644 | 39212 ft | 400 kts | 203° |
| 2026-05-05 17:15 | 42.40432 | -71.10919 | 38980 ft | 412 kts | 203° |
| 2026-05-05 17:15 | 42.37689 | -71.12231 | 38542 ft | 423 kts | 203° |
| 2026-05-05 17:16 | 42.34902 | -71.13558 | 37980 ft | 425 kts | 202° |
| 2026-05-05 17:16 | 42.32133 | -71.14872 | 37556 ft | 423 kts | 202° |
| 2026-05-05 17:16 | 42.29347 | -71.16194 | 37102 ft | 424 kts | 202° |
| 2026-05-05 17:16 | 42.26573 | -71.17510 | 36618 ft | 425 kts | 202° |
| 2026-05-05 17:17 | 42.23781 | -71.18834 | 36162 ft | 426 kts | 202° |
| 2026-05-05 17:17 | 42.20986 | -71.20159 | 35749 ft | 427 kts | 202° |
| 2026-05-05 17:17 | 42.18174 | -71.21490 | 35343 ft | 429 kts | 202° |
| 2026-05-05 17:17 | 42.15378 | -71.22812 | 34920 ft | 431 kts | 202° |
| 2026-05-05 17:18 | 42.12549 | -71.24149 | 34508 ft | 432 kts | 202° |
| 2026-05-05 17:18 | 42.09710 | -71.25489 | 34107 ft | 434 kts | 201° |
| 2026-05-05 17:18 | 42.06856 | -71.26835 | 33676 ft | 435 kts | 201° |
| 2026-05-05 17:18 | 42.03990 | -71.28185 | 33206 ft | 436 kts | 201° |
| 2026-05-05 17:19 | 42.01109 | -71.29541 | 32750 ft | 439 kts | 201° |
| 2026-05-05 17:19 | 41.98238 | -71.30890 | 32304 ft | 434 kts | 201° |
| 2026-05-05 17:19 | 41.95401 | -71.32221 | 31867 ft | 428 kts | 201° |
| 2026-05-05 17:19 | 41.92600 | -71.33535 | 31435 ft | 423 kts | 201° |
| 2026-05-05 17:20 | 41.89831 | -71.34832 | 31011 ft | 418 kts | 201° |
| 2026-05-05 17:20 | 41.87103 | -71.36110 | 30579 ft | 413 kts | 201° |
| 2026-05-05 17:20 | 41.84402 | -71.37374 | 30169 ft | 408 kts | 201° |
| 2026-05-05 17:20 | 41.81764 | -71.38608 | 29743 ft | 404 kts | 201° |
| 2026-05-05 17:21 | 41.79116 | -71.39845 | 29257 ft | 400 kts | 201° |
| 2026-05-05 17:21 | 41.76499 | -71.41067 | 28790 ft | 396 kts | 201° |
| 2026-05-05 17:21 | 41.73942 | -71.42361 | 28334 ft | 391 kts | 206° |
| 2026-05-05 17:22 | 41.69448 | -71.46254 | 27430 ft | 381 kts | 220° |
| 2026-05-05 17:22 | 41.67421 | -71.48511 | 26985 ft | 377 kts | 220° |
| 2026-05-05 17:22 | 41.65424 | -71.50762 | 26549 ft | 374 kts | 220° |
| 2026-05-05 17:22 | 41.63439 | -71.52994 | 26122 ft | 371 kts | 220° |
| 2026-05-05 17:23 | 41.61472 | -71.55197 | 25715 ft | 367 kts | 220° |
| 2026-05-05 17:23 | 41.59521 | -71.57377 | 25299 ft | 364 kts | 220° |
| 2026-05-05 17:23 | 41.57609 | -71.59509 | 24936 ft | 360 kts | 220° |
| 2026-05-05 17:23 | 41.55674 | -71.61664 | 24622 ft | 355 kts | 220° |
| 2026-05-05 17:24 | 41.53815 | -71.63732 | 24313 ft | 350 kts | 220° |
| 2026-05-05 17:24 | 41.51951 | -71.65802 | 24016 ft | 347 kts | 220° |
| 2026-05-05 17:24 | 41.50096 | -71.67861 | 23732 ft | 346 kts | 220° |
| 2026-05-05 17:24 | 41.48253 | -71.69906 | 23430 ft | 345 kts | 220° |
| 2026-05-05 17:25 | 41.46410 | -71.71948 | 23069 ft | 343 kts | 220° |
| 2026-05-05 17:25 | 41.45193 | -71.73297 | 22836 ft | 342 kts | 220° |
| 2026-05-05 17:25 | 41.42753 | -71.75997 | 22381 ft | 339 kts | 221° |
| 2026-05-05 17:25 | 41.40940 | -71.78002 | 22029 ft | 338 kts | 221° |
| 2026-05-05 17:26 | 41.39134 | -71.79997 | 21688 ft | 336 kts | 221° |
| 2026-05-05 17:26 | 41.37336 | -71.81982 | 21346 ft | 334 kts | 221° |
| 2026-05-05 17:26 | 41.35552 | -71.83950 | 21021 ft | 332 kts | 221° |
| 2026-05-05 17:26 | 41.33797 | -71.85886 | 20698 ft | 330 kts | 221° |
| 2026-05-05 17:27 | 41.32031 | -71.87831 | 20375 ft | 329 kts | 221° |
| 2026-05-05 17:27 | 41.30272 | -71.89768 | 20053 ft | 327 kts | 221° |
| 2026-05-05 17:27 | 41.28521 | -71.91695 | 19720 ft | 326 kts | 222° |
| 2026-05-05 17:27 | 41.26780 | -71.93608 | 19405 ft | 323 kts | 222° |
| 2026-05-05 17:28 | 41.25051 | -71.95507 | 19094 ft | 321 kts | 222° |
| 2026-05-05 17:28 | 41.23334 | -71.97391 | 18794 ft | 320 kts | 222° |
| 2026-05-05 17:28 | 41.21624 | -71.99268 | 18487 ft | 318 kts | 223° |
| 2026-05-05 17:28 | 41.19922 | -72.01133 | 18207 ft | 316 kts | 223° |
| 2026-05-05 17:29 | 41.18229 | -72.02988 | 17901 ft | 315 kts | 223° |
| 2026-05-05 17:29 | 41.16541 | -72.04836 | 17583 ft | 314 kts | 223° |
| 2026-05-05 17:29 | 41.14876 | -72.06658 | 17271 ft | 312 kts | 223° |
| 2026-05-05 17:29 | 41.13209 | -72.08480 | 16958 ft | 310 kts | 223° |
| 2026-05-05 17:30 | 41.11578 | -72.10332 | 16646 ft | 307 kts | 227° |
| 2026-05-05 17:30 | 41.10202 | -72.12456 | 16344 ft | 301 kts | 238° |
| 2026-05-05 17:30 | 41.09239 | -72.14894 | 16046 ft | 297 kts | 249° |
| 2026-05-05 17:30 | 41.08551 | -72.17458 | 15734 ft | 295 kts | 252° |
| 2026-05-05 17:31 | 41.07923 | -72.20034 | 15440 ft | 292 kts | 253° |
| 2026-05-05 17:31 | 41.07303 | -72.22593 | 15186 ft | 291 kts | 253° |
| 2026-05-05 17:31 | 41.06681 | -72.25139 | 14931 ft | 289 kts | 253° |
| 2026-05-05 17:31 | 41.06060 | -72.27665 | 14670 ft | 287 kts | 253° |
| 2026-05-05 17:32 | 41.05441 | -72.30166 | 14407 ft | 284 kts | 253° |
| 2026-05-05 17:32 | 41.04826 | -72.32648 | 14145 ft | 282 kts | 252° |
| 2026-05-05 17:32 | 41.04214 | -72.35110 | 13886 ft | 280 kts | 253° |
| 2026-05-05 17:32 | 41.03606 | -72.37552 | 13589 ft | 279 kts | 253° |
| 2026-05-05 17:33 | 41.03008 | -72.39954 | 13302 ft | 277 kts | 252° |
| 2026-05-05 17:33 | 41.02405 | -72.42372 | 13014 ft | 275 kts | 252° |
| 2026-05-05 17:33 | 41.01806 | -72.44769 | 12738 ft | 272 kts | 252° |
| 2026-05-05 17:33 | 41.01221 | -72.47110 | 12485 ft | 264 kts | 252° |
| 2026-05-05 17:34 | 41.00649 | -72.49393 | 12235 ft | 259 kts | 252° |
| 2026-05-05 17:34 | 41.00085 | -72.51646 | 11996 ft | 257 kts | 252° |
| 2026-05-05 17:34 | 40.99522 | -72.53890 | 11743 ft | 256 kts | 252° |
| 2026-05-05 17:34 | 40.98961 | -72.56124 | 11502 ft | 255 kts | 251° |
| 2026-05-05 17:35 | 40.98403 | -72.58345 | 11266 ft | 254 kts | 251° |
| 2026-05-05 17:35 | 40.97852 | -72.60536 | 11087 ft | 253 kts | 251° |
| 2026-05-05 17:35 | 40.97300 | -72.62730 | 10861 ft | 251 kts | 251° |
| 2026-05-05 17:35 | 40.96746 | -72.64927 | 10628 ft | 250 kts | 251° |
| 2026-05-05 17:36 | 40.96197 | -72.67105 | 10425 ft | 249 kts | 251° |
| 2026-05-05 17:36 | 40.95650 | -72.69271 | 10209 ft | 248 kts | 250° |
| 2026-05-05 17:36 | 40.95131 | -72.71441 | 10000 ft | 247 kts | 253° |
| 2026-05-05 17:36 | 40.94723 | -72.73656 | 9572 ft | 247 kts | 255° |
| 2026-05-05 17:37 | 40.94340 | -72.75870 | 9186 ft | 245 kts | 255° |
| 2026-05-05 17:37 | 40.94095 | -72.77326 | 8914 ft | 245 kts | 255° |
| 2026-05-05 17:37 | 40.93610 | -72.80257 | 8491 ft | 244 kts | 255° |
| 2026-05-05 17:37 | 40.93249 | -72.82451 | 8268 ft | 244 kts | 255° |
| 2026-05-05 17:38 | 40.92894 | -72.84619 | 8018 ft | 244 kts | 255° |
| 2026-05-05 17:38 | 40.92535 | -72.86810 | 7761 ft | 243 kts | 255° |
| 2026-05-05 17:38 | 40.92178 | -72.88996 | 7516 ft | 244 kts | 255° |
| 2026-05-05 17:38 | 40.91819 | -72.91190 | 7205 ft | 244 kts | 254° |
| 2026-05-05 17:39 | 40.91459 | -72.93384 | 6870 ft | 244 kts | 254° |
| 2026-05-05 17:39 | 40.91101 | -72.95568 | 6559 ft | 243 kts | 254° |
| 2026-05-05 17:39 | 40.90741 | -72.97759 | 6245 ft | 244 kts | 254° |
| 2026-05-05 17:39 | 40.90380 | -72.99952 | 5905 ft | 244 kts | 254° |
| 2026-05-05 17:40 | 40.90019 | -73.02141 | 5595 ft | 244 kts | 254° |
| 2026-05-05 17:40 | 40.89658 | -73.04334 | 5297 ft | 243 kts | 255° |
| 2026-05-05 17:40 | 40.89297 | -73.06519 | 5025 ft | 243 kts | 255° |
| 2026-05-05 17:40 | 40.88937 | -73.08700 | 4752 ft | 243 kts | 255° |
| 2026-05-05 17:41 | 40.88577 | -73.10877 | 4473 ft | 242 kts | 255° |
| 2026-05-05 17:41 | 40.88217 | -73.13048 | 4183 ft | 242 kts | 255° |
| 2026-05-05 17:41 | 40.87861 | -73.15191 | 3916 ft | 242 kts | 256° |
| 2026-05-05 17:41 | 40.87501 | -73.17360 | 3677 ft | 241 kts | 256° |
| 2026-05-05 17:42 | 40.87144 | -73.19525 | 3459 ft | 241 kts | 256° |
| 2026-05-05 17:42 | 40.86785 | -73.21686 | 3105 ft | 240 kts | 256° |
| 2026-05-05 17:42 | 40.86427 | -73.23831 | 2991 ft | 238 kts | 257° |
| 2026-05-05 17:42 | 40.86071 | -73.25962 | 2977 ft | 237 kts | 256° |
| 2026-05-05 17:43 | 40.85713 | -73.28094 | 2990 ft | 238 kts | 256° |
| 2026-05-05 17:43 | 40.85355 | -73.30233 | 3015 ft | 238 kts | 256° |
| 2026-05-05 17:43 | 40.84999 | -73.32359 | 2987 ft | 238 kts | 256° |
| 2026-05-05 17:43 | 40.84647 | -73.34458 | 2989 ft | 238 kts | 256° |
| 2026-05-05 17:44 | 40.84287 | -73.36595 | 2992 ft | 239 kts | 256° |
| 2026-05-05 17:44 | 40.83929 | -73.38737 | 2978 ft | 239 kts | 256° |
| 2026-05-05 17:44 | 40.83570 | -73.40874 | 2976 ft | 238 kts | 256° |
| 2026-05-05 17:44 | 40.83213 | -73.43006 | 2975 ft | 237 kts | 256° |
| 2026-05-05 17:45 | 40.82866 | -73.45053 | 2976 ft | 224 kts | 256° |
| 2026-05-05 17:45 | 40.82535 | -73.47012 | 3006 ft | 215 kts | 256° |
| 2026-05-05 17:45 | 40.82222 | -73.48868 | 2987 ft | 197 kts | 256° |
| 2026-05-05 17:45 | 40.81939 | -73.50552 | 2986 ft | 179 kts | 256° |
| 2026-05-05 17:46 | 40.81679 | -73.52087 | 2988 ft | 165 kts | 255° |
| 2026-05-05 17:46 | 40.81431 | -73.53548 | 2982 ft | 164 kts | 255° |
| 2026-05-05 17:46 | 40.81178 | -73.55014 | 2972 ft | 164 kts | 255° |
| 2026-05-05 17:46 | 40.80893 | -73.56469 | 2972 ft | 163 kts | 252° |
| 2026-05-05 17:47 | 40.80539 | -73.57887 | 2971 ft | 162 kts | 249° |
| 2026-05-05 17:47 | 40.80104 | -73.59264 | 2956 ft | 165 kts | 244° |
| 2026-05-05 17:47 | 40.79574 | -73.60634 | 2976 ft | 170 kts | 240° |
| 2026-05-05 17:47 | 40.78955 | -73.61961 | 2972 ft | 169 kts | 237° |
| 2026-05-05 17:48 | 40.78265 | -73.63210 | 2974 ft | 168 kts | 233° |
| 2026-05-05 17:48 | 40.77516 | -73.64369 | 2990 ft | 169 kts | 229° |
| 2026-05-05 17:48 | 40.76685 | -73.65469 | 3007 ft | 170 kts | 223° |
| 2026-05-05 17:48 | 40.75799 | -73.66513 | 2993 ft | 171 kts | 219° |
| 2026-05-05 17:49 | 40.74811 | -73.67420 | 2723 ft | 177 kts | 214° |
| 2026-05-05 17:49 | 40.73767 | -73.68230 | 2543 ft | 169 kts | 212° |
| 2026-05-05 17:49 | 40.72768 | -73.69005 | 2322 ft | 164 kts | 212° |
| 2026-05-05 17:49 | 40.71792 | -73.69763 | 1778 ft | 162 kts | 211° |
| 2026-05-05 17:50 | 40.70858 | -73.70458 | 1633 ft | 145 kts | 208° |
| 2026-05-05 17:50 | 40.70026 | -73.71121 | 1359 ft | 137 kts | 210° |
| 2026-05-05 17:50 | 40.69247 | -73.71754 | 1140 ft | 126 kts | 211° |
| 2026-05-05 17:50 | 40.68529 | -73.72338 | 961 ft | 116 kts | 208° |
| 2026-05-05 17:51 | 40.67840 | -73.72894 | 799 ft | 119 kts | 207° |
| 2026-05-05 17:51 | 40.67112 | -73.73453 | 648 ft | 121 kts | 207° |
| 2026-05-05 17:51 | 40.66397 | -73.74031 | 492 ft | 123 kts | 205° |
| 2026-05-05 17:51 | 40.65666 | -73.74593 | 315 ft | 122 kts | 204° |
| 2026-05-05 17:52 | 40.64926 | -73.75167 | 175 ft | 123 kts | 208° |
| 2026-05-05 17:52 | 40.64207 | -73.75739 | 32 ft | 118 kts | 207° |
| 2026-05-05 17:52 | 40.63648 | -73.76163 | 29 ft | 54 kts | 211° |
| 2026-05-05 17:52 | 40.63547 | -73.76242 | 30 ft | 2 kts | 211° |
| 2026-05-05 17:53 | 40.63413 | -73.76359 | 27 ft | 33 kts | 216° |
| 2026-05-05 17:53 | 40.63286 | -73.76529 | 28 ft | 15 kts | 237° |
| 2026-05-05 17:53 | 40.63248 | -73.76628 | 26 ft | 14 kts | 252° |
| 2026-05-05 17:53 | 40.63263 | -73.76770 | 29 ft | 23 kts | 297° |
| 2026-05-05 17:54 | 40.63354 | -73.76971 | 27 ft | 23 kts | 301° |
| 2026-05-05 17:54 | 40.63420 | -73.77118 | 29 ft | 19 kts | 300° |
| 2026-05-05 17:54 | 40.63482 | -73.77252 | 29 ft | 12 kts | 301° |
| 2026-05-05 17:54 | 40.63534 | -73.77367 | 29 ft | 21 kts | 301° |
| 2026-05-05 17:55 | 40.63598 | -73.77509 | 28 ft | 18 kts | 301° |
| 2026-05-05 17:55 | 40.63606 | -73.77613 | 28 ft | 10 kts | 237° |
| 2026-05-05 17:55 | 40.63515 | -73.77705 | 27 ft | 15 kts | 211° |
| 2026-05-05 17:55 | 40.63419 | -73.77779 | 30 ft | 15 kts | 214° |
| 2026-05-05 17:56 | 40.63360 | -73.77858 | 29 ft | 18 kts | 236° |
| 2026-05-05 17:56 | 40.63331 | -73.78015 | 25 ft | 14 kts | 277° |
| 2026-05-05 17:56 | 40.63382 | -73.78183 | 28 ft | 19 kts | 302° |
| 2026-05-05 17:56 | 40.63456 | -73.78343 | 31 ft | 20 kts | 301° |
| 2026-05-05 17:57 | 40.63521 | -73.78485 | 31 ft | 22 kts | 301° |
| 2026-05-05 17:57 | 40.63612 | -73.78681 | 31 ft | 23 kts | 302° |
| 2026-05-05 17:57 | 40.63678 | -73.78827 | 31 ft | 19 kts | 296° |
| 2026-05-05 17:57 | 40.63743 | -73.78940 | 29 ft | 6 kts | 342° |
| 2026-05-05 17:58 | 40.63823 | -73.78965 | 28 ft | 12 kts | 325° |
| 2026-05-05 17:58 | 40.63889 | -73.79092 | 27 ft | 21 kts | 301° |
| 2026-05-05 17:58 | 40.63951 | -73.79230 | 27 ft | 11 kts | 305° |
| 2026-05-05 17:58 | 40.63978 | -73.79244 | 28 ft | 8 kts | 354° |
| 2026-05-05 17:59 | 40.63995 | -73.79238 | 27 ft | 0 kts | 22° |
| 2026-05-05 17:59 | 40.63995 | -73.79239 | 27 ft | 0 kts | 22° |
| 2026-05-05 18:00 | 40.63995 | -73.79238 | 24 ft | 1 kts | 22° |
| 2026-05-05 18:00 | 40.64011 | -73.79230 | 29 ft | 12 kts | 21° |
| 2026-05-05 18:00 | 40.64040 | -73.79228 | 27 ft | 6 kts | 349° |
| 2026-05-05 18:01 | 40.64053 | -73.79241 | 25 ft | 1 kts | 315° |
| 2026-05-05 18:01 | 40.64090 | -73.79281 | 27 ft | 0 kts | 356° |
| 2026-05-05 18:01 | 40.64090 | -73.79283 | 27 ft | 0 kts | 355° |
| 2026-05-05 18:01 | 40.64089 | -73.79282 | 27 ft | 0 kts | 357° |
| 2026-05-05 18:02 | 40.64086 | -73.79282 | 26 ft | 1 kts | 356° |
| 2026-05-05 18:02 | 40.64082 | -73.79282 | 26 ft | 1 kts | 356° |
| 2026-05-05 18:02 | 40.64077 | -73.79282 | 26 ft | 1 kts | 355° |
| 2026-05-05 18:02 | 40.64073 | -73.79281 | 29 ft | 0 kts | 1° |